<?xml version="1.0" encoding="UTF-8" standalone="no" ?>
<gpx xmlns="http://www.topografix.com/GPX/1/1" xmlns:xsi="http://www.w3.org/2001/XMLSchema-instance" xsi:schemaLocation="http://www.topografix.com/GPX/1/1 http://www.topografix.com/GPX/1/1/gpx.xsd" version="1.1" creator="VisuGPX - https://www.visugpx.com">
  <metadata>
    <name>Chateaulin Bois du Chap 14/09/15</name>
  </metadata>
  <trk>
    <name><![CDATA[Chateaulin Bois du Chap 14/09/15]]></name>
    <trkseg>
      <trkpt lat="48.19739" lon="-4.09171">
        <ele>-33.99</ele>
        <time>2015-09-14T12:27:08Z</time>
      </trkpt>
      <trkpt lat="48.19739" lon="-4.09171">
        <ele>-33.99</ele>
        <time>2015-09-14T12:27:09Z</time>
      </trkpt>
      <trkpt lat="48.19739" lon="-4.09172">
        <ele>11.19</ele>
        <time>2015-09-14T12:27:12Z</time>
      </trkpt>
      <trkpt lat="48.19739" lon="-4.09171">
        <ele>11.19</ele>
        <time>2015-09-14T12:27:13Z</time>
      </trkpt>
      <trkpt lat="48.1974" lon="-4.09172">
        <ele>10.23</ele>
        <time>2015-09-14T12:27:38Z</time>
      </trkpt>
      <trkpt lat="48.19739" lon="-4.09172">
        <ele>11.19</ele>
        <time>2015-09-14T12:27:57Z</time>
      </trkpt>
      <trkpt lat="48.19738" lon="-4.09175">
        <ele>10.71</ele>
        <time>2015-09-14T12:28:22Z</time>
      </trkpt>
      <trkpt lat="48.19738" lon="-4.09177">
        <ele>10.23</ele>
        <time>2015-09-14T12:28:45Z</time>
      </trkpt>
      <trkpt lat="48.19738" lon="-4.09175">
        <ele>9.27</ele>
        <time>2015-09-14T12:29:04Z</time>
      </trkpt>
      <trkpt lat="48.19737" lon="-4.09175">
        <ele>7.35</ele>
        <time>2015-09-14T12:29:12Z</time>
      </trkpt>
      <trkpt lat="48.19738" lon="-4.09175">
        <ele>8.79</ele>
        <time>2015-09-14T12:29:15Z</time>
      </trkpt>
      <trkpt lat="48.19737" lon="-4.09175">
        <ele>9.27</ele>
        <time>2015-09-14T12:29:24Z</time>
      </trkpt>
      <trkpt lat="48.19739" lon="-4.09174">
        <ele>11.19</ele>
        <time>2015-09-14T12:29:42Z</time>
      </trkpt>
      <trkpt lat="48.19738" lon="-4.09176">
        <ele>9.75</ele>
        <time>2015-09-14T12:29:52Z</time>
      </trkpt>
      <trkpt lat="48.19739" lon="-4.09172">
        <ele>10.23</ele>
        <time>2015-09-14T12:30:14Z</time>
      </trkpt>
      <trkpt lat="48.19739" lon="-4.09174">
        <ele>10.71</ele>
        <time>2015-09-14T12:30:28Z</time>
      </trkpt>
      <trkpt lat="48.1974" lon="-4.09175">
        <ele>10.71</ele>
        <time>2015-09-14T12:30:53Z</time>
      </trkpt>
      <trkpt lat="48.19742" lon="-4.09175">
        <ele>10.71</ele>
        <time>2015-09-14T12:31:10Z</time>
      </trkpt>
      <trkpt lat="48.1974" lon="-4.09177">
        <ele>10.71</ele>
        <time>2015-09-14T12:31:23Z</time>
      </trkpt>
      <trkpt lat="48.19739" lon="-4.09174">
        <ele>9.27</ele>
        <time>2015-09-14T12:31:38Z</time>
      </trkpt>
      <trkpt lat="48.19736" lon="-4.09173">
        <ele>9.75</ele>
        <time>2015-09-14T12:31:58Z</time>
      </trkpt>
      <trkpt lat="48.19735" lon="-4.09174">
        <ele>9.75</ele>
        <time>2015-09-14T12:32:18Z</time>
      </trkpt>
      <trkpt lat="48.19739" lon="-4.09177">
        <ele>9.75</ele>
        <time>2015-09-14T12:32:41Z</time>
      </trkpt>
      <trkpt lat="48.19737" lon="-4.09176">
        <ele>9.75</ele>
        <time>2015-09-14T12:32:57Z</time>
      </trkpt>
      <trkpt lat="48.19737" lon="-4.09177">
        <ele>10.71</ele>
        <time>2015-09-14T12:33:22Z</time>
      </trkpt>
      <trkpt lat="48.19738" lon="-4.09177">
        <ele>10.71</ele>
        <time>2015-09-14T12:33:44Z</time>
      </trkpt>
      <trkpt lat="48.19739" lon="-4.09178">
        <ele>9.75</ele>
        <time>2015-09-14T12:34:02Z</time>
      </trkpt>
      <trkpt lat="48.19739" lon="-4.09178">
        <ele>10.71</ele>
        <time>2015-09-14T12:34:04Z</time>
      </trkpt>
      <trkpt lat="48.19738" lon="-4.09178">
        <ele>10.71</ele>
        <time>2015-09-14T12:34:23Z</time>
      </trkpt>
      <trkpt lat="48.19738" lon="-4.09178">
        <ele>10.71</ele>
        <time>2015-09-14T12:34:48Z</time>
      </trkpt>
      <trkpt lat="48.19737" lon="-4.09177">
        <ele>9.75</ele>
        <time>2015-09-14T12:35:02Z</time>
      </trkpt>
      <trkpt lat="48.19736" lon="-4.09173">
        <ele>8.79</ele>
        <time>2015-09-14T12:35:14Z</time>
      </trkpt>
      <trkpt lat="48.19736" lon="-4.09173">
        <ele>9.75</ele>
        <time>2015-09-14T12:35:27Z</time>
      </trkpt>
      <trkpt lat="48.19736" lon="-4.09173">
        <ele>12.15</ele>
        <time>2015-09-14T12:35:33Z</time>
      </trkpt>
      <trkpt lat="48.19736" lon="-4.09173">
        <ele>10.71</ele>
        <time>2015-09-14T12:35:36Z</time>
      </trkpt>
      <trkpt lat="48.19736" lon="-4.09172">
        <ele>9.75</ele>
        <time>2015-09-14T12:36:01Z</time>
      </trkpt>
      <trkpt lat="48.19735" lon="-4.09169">
        <ele>11.19</ele>
        <time>2015-09-14T12:36:22Z</time>
      </trkpt>
      <trkpt lat="48.19735" lon="-4.0918">
        <ele>11.67</ele>
        <time>2015-09-14T12:36:39Z</time>
      </trkpt>
      <trkpt lat="48.19734" lon="-4.09183">
        <ele>12.15</ele>
        <time>2015-09-14T12:36:42Z</time>
      </trkpt>
      <trkpt lat="48.19734" lon="-4.09185">
        <ele>12.15</ele>
        <time>2015-09-14T12:36:44Z</time>
      </trkpt>
      <trkpt lat="48.19734" lon="-4.09195">
        <ele>10.71</ele>
        <time>2015-09-14T12:36:51Z</time>
      </trkpt>
      <trkpt lat="48.19742" lon="-4.09219">
        <ele>10.23</ele>
        <time>2015-09-14T12:37:07Z</time>
      </trkpt>
      <trkpt lat="48.19743" lon="-4.09225">
        <ele>11.67</ele>
        <time>2015-09-14T12:37:11Z</time>
      </trkpt>
      <trkpt lat="48.19741" lon="-4.09231">
        <ele>10.23</ele>
        <time>2015-09-14T12:37:15Z</time>
      </trkpt>
      <trkpt lat="48.19727" lon="-4.09257">
        <ele>11.67</ele>
        <time>2015-09-14T12:37:35Z</time>
      </trkpt>
      <trkpt lat="48.19715" lon="-4.09285">
        <ele>11.67</ele>
        <time>2015-09-14T12:37:55Z</time>
      </trkpt>
      <trkpt lat="48.19722" lon="-4.09284">
        <ele>11.67</ele>
        <time>2015-09-14T12:38:07Z</time>
      </trkpt>
      <trkpt lat="48.19736" lon="-4.09271">
        <ele>14.56</ele>
        <time>2015-09-14T12:38:26Z</time>
      </trkpt>
      <trkpt lat="48.1975" lon="-4.09283">
        <ele>17.44</ele>
        <time>2015-09-14T12:38:43Z</time>
      </trkpt>
      <trkpt lat="48.19753" lon="-4.09291">
        <ele>16.96</ele>
        <time>2015-09-14T12:38:49Z</time>
      </trkpt>
      <trkpt lat="48.19759" lon="-4.09308">
        <ele>18.4</ele>
        <time>2015-09-14T12:39:00Z</time>
      </trkpt>
      <trkpt lat="48.19771" lon="-4.09346">
        <ele>18.88</ele>
        <time>2015-09-14T12:39:22Z</time>
      </trkpt>
      <trkpt lat="48.19776" lon="-4.09374">
        <ele>21.77</ele>
        <time>2015-09-14T12:39:40Z</time>
      </trkpt>
      <trkpt lat="48.19778" lon="-4.09408">
        <ele>23.21</ele>
        <time>2015-09-14T12:40:01Z</time>
      </trkpt>
      <trkpt lat="48.19777" lon="-4.0944">
        <ele>24.65</ele>
        <time>2015-09-14T12:40:22Z</time>
      </trkpt>
      <trkpt lat="48.19775" lon="-4.09471">
        <ele>26.09</ele>
        <time>2015-09-14T12:40:42Z</time>
      </trkpt>
      <trkpt lat="48.19773" lon="-4.09502">
        <ele>27.05</ele>
        <time>2015-09-14T12:41:02Z</time>
      </trkpt>
      <trkpt lat="48.19766" lon="-4.09533">
        <ele>28.02</ele>
        <time>2015-09-14T12:41:22Z</time>
      </trkpt>
      <trkpt lat="48.19754" lon="-4.09558">
        <ele>28.98</ele>
        <time>2015-09-14T12:41:41Z</time>
      </trkpt>
      <trkpt lat="48.19747" lon="-4.09584">
        <ele>30.9</ele>
        <time>2015-09-14T12:42:01Z</time>
      </trkpt>
      <trkpt lat="48.19731" lon="-4.09605">
        <ele>31.38</ele>
        <time>2015-09-14T12:42:17Z</time>
      </trkpt>
      <trkpt lat="48.19725" lon="-4.09637">
        <ele>31.86</ele>
        <time>2015-09-14T12:42:38Z</time>
      </trkpt>
      <trkpt lat="48.1972" lon="-4.09658">
        <ele>33.3</ele>
        <time>2015-09-14T12:42:56Z</time>
      </trkpt>
      <trkpt lat="48.19718" lon="-4.09664">
        <ele>34.74</ele>
        <time>2015-09-14T12:43:00Z</time>
      </trkpt>
      <trkpt lat="48.19702" lon="-4.09694">
        <ele>38.11</ele>
        <time>2015-09-14T12:43:20Z</time>
      </trkpt>
      <trkpt lat="48.19692" lon="-4.09729">
        <ele>38.59</ele>
        <time>2015-09-14T12:43:40Z</time>
      </trkpt>
      <trkpt lat="48.19678" lon="-4.09756">
        <ele>40.51</ele>
        <time>2015-09-14T12:44:01Z</time>
      </trkpt>
      <trkpt lat="48.19677" lon="-4.09757">
        <ele>39.07</ele>
        <time>2015-09-14T12:44:03Z</time>
      </trkpt>
      <trkpt lat="48.19663" lon="-4.09778">
        <ele>38.11</ele>
        <time>2015-09-14T12:44:20Z</time>
      </trkpt>
      <trkpt lat="48.1966" lon="-4.09783">
        <ele>36.67</ele>
        <time>2015-09-14T12:44:25Z</time>
      </trkpt>
      <trkpt lat="48.19648" lon="-4.09794">
        <ele>36.67</ele>
        <time>2015-09-14T12:44:39Z</time>
      </trkpt>
      <trkpt lat="48.19631" lon="-4.09802">
        <ele>35.71</ele>
        <time>2015-09-14T12:44:55Z</time>
      </trkpt>
      <trkpt lat="48.19606" lon="-4.0981">
        <ele>36.67</ele>
        <time>2015-09-14T12:45:15Z</time>
      </trkpt>
      <trkpt lat="48.19581" lon="-4.09815">
        <ele>37.15</ele>
        <time>2015-09-14T12:45:39Z</time>
      </trkpt>
      <trkpt lat="48.19561" lon="-4.09814">
        <ele>37.63</ele>
        <time>2015-09-14T12:45:59Z</time>
      </trkpt>
      <trkpt lat="48.19558" lon="-4.0981">
        <ele>37.63</ele>
        <time>2015-09-14T12:46:16Z</time>
      </trkpt>
      <trkpt lat="48.19554" lon="-4.09809">
        <ele>37.63</ele>
        <time>2015-09-14T12:46:29Z</time>
      </trkpt>
      <trkpt lat="48.19551" lon="-4.09803">
        <ele>36.19</ele>
        <time>2015-09-14T12:46:43Z</time>
      </trkpt>
      <trkpt lat="48.19551" lon="-4.098">
        <ele>37.15</ele>
        <time>2015-09-14T12:46:51Z</time>
      </trkpt>
      <trkpt lat="48.19552" lon="-4.09791">
        <ele>39.55</ele>
        <time>2015-09-14T12:47:06Z</time>
      </trkpt>
      <trkpt lat="48.19552" lon="-4.0979">
        <ele>38.59</ele>
        <time>2015-09-14T12:47:14Z</time>
      </trkpt>
      <trkpt lat="48.19552" lon="-4.09794">
        <ele>37.15</ele>
        <time>2015-09-14T12:47:33Z</time>
      </trkpt>
      <trkpt lat="48.19553" lon="-4.09798">
        <ele>36.67</ele>
        <time>2015-09-14T12:47:48Z</time>
      </trkpt>
      <trkpt lat="48.19553" lon="-4.09803">
        <ele>36.19</ele>
        <time>2015-09-14T12:48:00Z</time>
      </trkpt>
      <trkpt lat="48.19555" lon="-4.0978">
        <ele>37.15</ele>
        <time>2015-09-14T12:48:14Z</time>
      </trkpt>
      <trkpt lat="48.19556" lon="-4.09778">
        <ele>37.15</ele>
        <time>2015-09-14T12:48:19Z</time>
      </trkpt>
      <trkpt lat="48.19556" lon="-4.09762">
        <ele>39.07</ele>
        <time>2015-09-14T12:48:34Z</time>
      </trkpt>
      <trkpt lat="48.19556" lon="-4.09758">
        <ele>39.07</ele>
        <time>2015-09-14T12:48:36Z</time>
      </trkpt>
      <trkpt lat="48.19567" lon="-4.09749">
        <ele>39.55</ele>
        <time>2015-09-14T12:48:45Z</time>
      </trkpt>
      <trkpt lat="48.19569" lon="-4.09749">
        <ele>40.03</ele>
        <time>2015-09-14T12:48:47Z</time>
      </trkpt>
      <trkpt lat="48.19572" lon="-4.09764">
        <ele>38.59</ele>
        <time>2015-09-14T12:49:01Z</time>
      </trkpt>
      <trkpt lat="48.19572" lon="-4.09765">
        <ele>38.59</ele>
        <time>2015-09-14T12:49:03Z</time>
      </trkpt>
      <trkpt lat="48.19575" lon="-4.09795">
        <ele>37.63</ele>
        <time>2015-09-14T12:49:16Z</time>
      </trkpt>
      <trkpt lat="48.19572" lon="-4.09809">
        <ele>37.63</ele>
        <time>2015-09-14T12:49:31Z</time>
      </trkpt>
      <trkpt lat="48.19571" lon="-4.0981">
        <ele>38.59</ele>
        <time>2015-09-14T12:49:36Z</time>
      </trkpt>
      <trkpt lat="48.19571" lon="-4.09811">
        <ele>39.55</ele>
        <time>2015-09-14T12:49:38Z</time>
      </trkpt>
      <trkpt lat="48.19566" lon="-4.09812">
        <ele>38.11</ele>
        <time>2015-09-14T12:49:42Z</time>
      </trkpt>
      <trkpt lat="48.19558" lon="-4.09813">
        <ele>37.63</ele>
        <time>2015-09-14T12:49:52Z</time>
      </trkpt>
      <trkpt lat="48.19548" lon="-4.09813">
        <ele>34.74</ele>
        <time>2015-09-14T12:50:07Z</time>
      </trkpt>
      <trkpt lat="48.19544" lon="-4.09816">
        <ele>34.74</ele>
        <time>2015-09-14T12:50:21Z</time>
      </trkpt>
      <trkpt lat="48.19542" lon="-4.09824">
        <ele>33.78</ele>
        <time>2015-09-14T12:50:35Z</time>
      </trkpt>
      <trkpt lat="48.19543" lon="-4.09826">
        <ele>33.78</ele>
        <time>2015-09-14T12:50:37Z</time>
      </trkpt>
      <trkpt lat="48.19555" lon="-4.09839">
        <ele>31.86</ele>
        <time>2015-09-14T12:50:54Z</time>
      </trkpt>
      <trkpt lat="48.19571" lon="-4.09849">
        <ele>29.46</ele>
        <time>2015-09-14T12:51:12Z</time>
      </trkpt>
      <trkpt lat="48.19595" lon="-4.09846">
        <ele>27.05</ele>
        <time>2015-09-14T12:51:33Z</time>
      </trkpt>
      <trkpt lat="48.19596" lon="-4.09845">
        <ele>27.05</ele>
        <time>2015-09-14T12:51:34Z</time>
      </trkpt>
      <trkpt lat="48.19618" lon="-4.0984">
        <ele>25.61</ele>
        <time>2015-09-14T12:51:54Z</time>
      </trkpt>
      <trkpt lat="48.19637" lon="-4.09837">
        <ele>24.65</ele>
        <time>2015-09-14T12:52:09Z</time>
      </trkpt>
      <trkpt lat="48.19663" lon="-4.09832">
        <ele>21.77</ele>
        <time>2015-09-14T12:52:33Z</time>
      </trkpt>
      <trkpt lat="48.19664" lon="-4.09832">
        <ele>22.25</ele>
        <time>2015-09-14T12:52:34Z</time>
      </trkpt>
      <trkpt lat="48.19666" lon="-4.0983">
        <ele>23.69</ele>
        <time>2015-09-14T12:52:37Z</time>
      </trkpt>
      <trkpt lat="48.19684" lon="-4.0982">
        <ele>22.25</ele>
        <time>2015-09-14T12:52:54Z</time>
      </trkpt>
      <trkpt lat="48.197" lon="-4.09825">
        <ele>24.17</ele>
        <time>2015-09-14T12:53:09Z</time>
      </trkpt>
      <trkpt lat="48.19722" lon="-4.09828">
        <ele>25.13</ele>
        <time>2015-09-14T12:53:25Z</time>
      </trkpt>
      <trkpt lat="48.19733" lon="-4.09834">
        <ele>25.13</ele>
        <time>2015-09-14T12:53:40Z</time>
      </trkpt>
      <trkpt lat="48.19735" lon="-4.09833">
        <ele>25.13</ele>
        <time>2015-09-14T12:53:43Z</time>
      </trkpt>
      <trkpt lat="48.19745" lon="-4.0984">
        <ele>25.13</ele>
        <time>2015-09-14T12:54:00Z</time>
      </trkpt>
      <trkpt lat="48.1975" lon="-4.09846">
        <ele>25.13</ele>
        <time>2015-09-14T12:54:09Z</time>
      </trkpt>
      <trkpt lat="48.19755" lon="-4.0985">
        <ele>25.61</ele>
        <time>2015-09-14T12:54:14Z</time>
      </trkpt>
      <trkpt lat="48.19764" lon="-4.09856">
        <ele>24.65</ele>
        <time>2015-09-14T12:54:23Z</time>
      </trkpt>
      <trkpt lat="48.19768" lon="-4.09858">
        <ele>26.09</ele>
        <time>2015-09-14T12:54:27Z</time>
      </trkpt>
      <trkpt lat="48.19769" lon="-4.09859">
        <ele>28.5</ele>
        <time>2015-09-14T12:54:29Z</time>
      </trkpt>
      <trkpt lat="48.19785" lon="-4.09872">
        <ele>29.46</ele>
        <time>2015-09-14T12:54:47Z</time>
      </trkpt>
      <trkpt lat="48.19795" lon="-4.09879">
        <ele>31.86</ele>
        <time>2015-09-14T12:55:01Z</time>
      </trkpt>
      <trkpt lat="48.19812" lon="-4.09888">
        <ele>35.23</ele>
        <time>2015-09-14T12:55:20Z</time>
      </trkpt>
      <trkpt lat="48.19824" lon="-4.09889">
        <ele>36.67</ele>
        <time>2015-09-14T12:55:37Z</time>
      </trkpt>
      <trkpt lat="48.19831" lon="-4.09899">
        <ele>37.63</ele>
        <time>2015-09-14T12:55:52Z</time>
      </trkpt>
      <trkpt lat="48.1983" lon="-4.09899">
        <ele>40.99</ele>
        <time>2015-09-14T12:56:00Z</time>
      </trkpt>
      <trkpt lat="48.19869" lon="-4.09949">
        <ele>41.95</ele>
        <time>2015-09-14T12:56:35Z</time>
      </trkpt>
      <trkpt lat="48.19874" lon="-4.09951">
        <ele>43.88</ele>
        <time>2015-09-14T12:56:44Z</time>
      </trkpt>
      <trkpt lat="48.19867" lon="-4.09965">
        <ele>46.28</ele>
        <time>2015-09-14T12:56:58Z</time>
      </trkpt>
      <trkpt lat="48.19857" lon="-4.09975">
        <ele>49.16</ele>
        <time>2015-09-14T12:57:14Z</time>
      </trkpt>
      <trkpt lat="48.19849" lon="-4.09988">
        <ele>51.09</ele>
        <time>2015-09-14T12:57:26Z</time>
      </trkpt>
      <trkpt lat="48.19838" lon="-4.1001">
        <ele>54.45</ele>
        <time>2015-09-14T12:57:43Z</time>
      </trkpt>
      <trkpt lat="48.19823" lon="-4.10031">
        <ele>55.89</ele>
        <time>2015-09-14T12:58:01Z</time>
      </trkpt>
      <trkpt lat="48.19816" lon="-4.10043">
        <ele>58.78</ele>
        <time>2015-09-14T12:58:11Z</time>
      </trkpt>
      <trkpt lat="48.19808" lon="-4.10061">
        <ele>61.18</ele>
        <time>2015-09-14T12:58:26Z</time>
      </trkpt>
      <trkpt lat="48.19798" lon="-4.10083">
        <ele>64.07</ele>
        <time>2015-09-14T12:58:44Z</time>
      </trkpt>
      <trkpt lat="48.19798" lon="-4.10102">
        <ele>66.95</ele>
        <time>2015-09-14T12:58:59Z</time>
      </trkpt>
      <trkpt lat="48.19799" lon="-4.10105">
        <ele>67.91</ele>
        <time>2015-09-14T12:59:01Z</time>
      </trkpt>
      <trkpt lat="48.19806" lon="-4.1013">
        <ele>70.31</ele>
        <time>2015-09-14T12:59:21Z</time>
      </trkpt>
      <trkpt lat="48.19809" lon="-4.10135">
        <ele>71.27</ele>
        <time>2015-09-14T12:59:25Z</time>
      </trkpt>
      <trkpt lat="48.19821" lon="-4.10156">
        <ele>73.68</ele>
        <time>2015-09-14T12:59:42Z</time>
      </trkpt>
      <trkpt lat="48.19822" lon="-4.10156">
        <ele>73.68</ele>
        <time>2015-09-14T12:59:43Z</time>
      </trkpt>
      <trkpt lat="48.1983" lon="-4.10181">
        <ele>76.08</ele>
        <time>2015-09-14T13:00:03Z</time>
      </trkpt>
      <trkpt lat="48.19838" lon="-4.102">
        <ele>79.45</ele>
        <time>2015-09-14T13:00:18Z</time>
      </trkpt>
      <trkpt lat="48.19845" lon="-4.10227">
        <ele>79.45</ele>
        <time>2015-09-14T13:00:35Z</time>
      </trkpt>
      <trkpt lat="48.19848" lon="-4.10237">
        <ele>80.89</ele>
        <time>2015-09-14T13:00:40Z</time>
      </trkpt>
      <trkpt lat="48.19859" lon="-4.10262">
        <ele>82.33</ele>
        <time>2015-09-14T13:00:56Z</time>
      </trkpt>
      <trkpt lat="48.19865" lon="-4.10289">
        <ele>84.25</ele>
        <time>2015-09-14T13:01:13Z</time>
      </trkpt>
      <trkpt lat="48.19867" lon="-4.10294">
        <ele>85.69</ele>
        <time>2015-09-14T13:01:18Z</time>
      </trkpt>
      <trkpt lat="48.1987" lon="-4.10316">
        <ele>86.18</ele>
        <time>2015-09-14T13:01:31Z</time>
      </trkpt>
      <trkpt lat="48.19876" lon="-4.10337">
        <ele>89.06</ele>
        <time>2015-09-14T13:01:47Z</time>
      </trkpt>
      <trkpt lat="48.1988" lon="-4.10361">
        <ele>90.02</ele>
        <time>2015-09-14T13:02:02Z</time>
      </trkpt>
      <trkpt lat="48.19881" lon="-4.10382">
        <ele>91.94</ele>
        <time>2015-09-14T13:02:19Z</time>
      </trkpt>
      <trkpt lat="48.19886" lon="-4.10404">
        <ele>93.87</ele>
        <time>2015-09-14T13:02:35Z</time>
      </trkpt>
      <trkpt lat="48.1989" lon="-4.10431">
        <ele>94.83</ele>
        <time>2015-09-14T13:02:52Z</time>
      </trkpt>
      <trkpt lat="48.19892" lon="-4.10456">
        <ele>95.31</ele>
        <time>2015-09-14T13:03:10Z</time>
      </trkpt>
      <trkpt lat="48.19899" lon="-4.1048">
        <ele>95.79</ele>
        <time>2015-09-14T13:03:26Z</time>
      </trkpt>
      <trkpt lat="48.19907" lon="-4.10509">
        <ele>95.79</ele>
        <time>2015-09-14T13:03:45Z</time>
      </trkpt>
      <trkpt lat="48.19913" lon="-4.10532">
        <ele>96.27</ele>
        <time>2015-09-14T13:04:01Z</time>
      </trkpt>
      <trkpt lat="48.19921" lon="-4.10559">
        <ele>96.75</ele>
        <time>2015-09-14T13:04:21Z</time>
      </trkpt>
      <trkpt lat="48.1993" lon="-4.10583">
        <ele>97.23</ele>
        <time>2015-09-14T13:04:34Z</time>
      </trkpt>
      <trkpt lat="48.19932" lon="-4.10589">
        <ele>97.23</ele>
        <time>2015-09-14T13:04:36Z</time>
      </trkpt>
      <trkpt lat="48.19945" lon="-4.10607">
        <ele>98.67</ele>
        <time>2015-09-14T13:04:54Z</time>
      </trkpt>
      <trkpt lat="48.19947" lon="-4.10615">
        <ele>99.63</ele>
        <time>2015-09-14T13:05:10Z</time>
      </trkpt>
      <trkpt lat="48.19947" lon="-4.10615">
        <ele>98.67</ele>
        <time>2015-09-14T13:05:15Z</time>
      </trkpt>
      <trkpt lat="48.19947" lon="-4.10618">
        <ele>99.63</ele>
        <time>2015-09-14T13:05:34Z</time>
      </trkpt>
      <trkpt lat="48.19946" lon="-4.10618">
        <ele>98.19</ele>
        <time>2015-09-14T13:05:39Z</time>
      </trkpt>
      <trkpt lat="48.19946" lon="-4.10617">
        <ele>95.31</ele>
        <time>2015-09-14T13:05:57Z</time>
      </trkpt>
      <trkpt lat="48.19946" lon="-4.10617">
        <ele>99.15</ele>
        <time>2015-09-14T13:06:00Z</time>
      </trkpt>
      <trkpt lat="48.19946" lon="-4.10617">
        <ele>99.15</ele>
        <time>2015-09-14T13:06:01Z</time>
      </trkpt>
      <trkpt lat="48.19946" lon="-4.10617">
        <ele>97.71</ele>
        <time>2015-09-14T13:06:04Z</time>
      </trkpt>
      <trkpt lat="48.19947" lon="-4.10618">
        <ele>99.63</ele>
        <time>2015-09-14T13:06:12Z</time>
      </trkpt>
      <trkpt lat="48.19947" lon="-4.10618">
        <ele>96.75</ele>
        <time>2015-09-14T13:06:16Z</time>
      </trkpt>
      <trkpt lat="48.19947" lon="-4.10618">
        <ele>98.19</ele>
        <time>2015-09-14T13:06:18Z</time>
      </trkpt>
      <trkpt lat="48.19946" lon="-4.10618">
        <ele>98.67</ele>
        <time>2015-09-14T13:06:32Z</time>
      </trkpt>
      <trkpt lat="48.19947" lon="-4.10619">
        <ele>96.75</ele>
        <time>2015-09-14T13:06:40Z</time>
      </trkpt>
      <trkpt lat="48.19947" lon="-4.10619">
        <ele>98.19</ele>
        <time>2015-09-14T13:06:43Z</time>
      </trkpt>
      <trkpt lat="48.19946" lon="-4.10618">
        <ele>97.71</ele>
        <time>2015-09-14T13:07:04Z</time>
      </trkpt>
      <trkpt lat="48.19947" lon="-4.10619">
        <ele>97.71</ele>
        <time>2015-09-14T13:07:25Z</time>
      </trkpt>
      <trkpt lat="48.19947" lon="-4.10618">
        <ele>98.19</ele>
        <time>2015-09-14T13:07:38Z</time>
      </trkpt>
      <trkpt lat="48.19949" lon="-4.10619">
        <ele>96.75</ele>
        <time>2015-09-14T13:07:44Z</time>
      </trkpt>
      <trkpt lat="48.1995" lon="-4.1062">
        <ele>98.19</ele>
        <time>2015-09-14T13:07:46Z</time>
      </trkpt>
      <trkpt lat="48.19958" lon="-4.1064">
        <ele>97.71</ele>
        <time>2015-09-14T13:08:01Z</time>
      </trkpt>
      <trkpt lat="48.19962" lon="-4.1067">
        <ele>97.71</ele>
        <time>2015-09-14T13:08:19Z</time>
      </trkpt>
      <trkpt lat="48.19963" lon="-4.10699">
        <ele>97.71</ele>
        <time>2015-09-14T13:08:37Z</time>
      </trkpt>
      <trkpt lat="48.19961" lon="-4.1072">
        <ele>99.63</ele>
        <time>2015-09-14T13:08:53Z</time>
      </trkpt>
      <trkpt lat="48.19959" lon="-4.10736">
        <ele>98.19</ele>
        <time>2015-09-14T13:09:04Z</time>
      </trkpt>
      <trkpt lat="48.19955" lon="-4.10764">
        <ele>99.15</ele>
        <time>2015-09-14T13:09:23Z</time>
      </trkpt>
      <trkpt lat="48.19952" lon="-4.10791">
        <ele>99.63</ele>
        <time>2015-09-14T13:09:43Z</time>
      </trkpt>
      <trkpt lat="48.19964" lon="-4.10799">
        <ele>101.08</ele>
        <time>2015-09-14T13:10:01Z</time>
      </trkpt>
      <trkpt lat="48.19982" lon="-4.10801">
        <ele>101.08</ele>
        <time>2015-09-14T13:10:21Z</time>
      </trkpt>
      <trkpt lat="48.19998" lon="-4.10806">
        <ele>101.08</ele>
        <time>2015-09-14T13:10:40Z</time>
      </trkpt>
      <trkpt lat="48.2" lon="-4.10806">
        <ele>100.11</ele>
        <time>2015-09-14T13:10:42Z</time>
      </trkpt>
      <trkpt lat="48.20017" lon="-4.10813">
        <ele>99.15</ele>
        <time>2015-09-14T13:10:59Z</time>
      </trkpt>
      <trkpt lat="48.20017" lon="-4.10821">
        <ele>98.67</ele>
        <time>2015-09-14T13:11:15Z</time>
      </trkpt>
      <trkpt lat="48.20016" lon="-4.10833">
        <ele>98.67</ele>
        <time>2015-09-14T13:11:31Z</time>
      </trkpt>
      <trkpt lat="48.20016" lon="-4.10856">
        <ele>100.11</ele>
        <time>2015-09-14T13:11:48Z</time>
      </trkpt>
      <trkpt lat="48.20016" lon="-4.10881">
        <ele>99.63</ele>
        <time>2015-09-14T13:12:05Z</time>
      </trkpt>
      <trkpt lat="48.20016" lon="-4.10904">
        <ele>99.63</ele>
        <time>2015-09-14T13:12:23Z</time>
      </trkpt>
      <trkpt lat="48.20015" lon="-4.10904">
        <ele>99.63</ele>
        <time>2015-09-14T13:12:24Z</time>
      </trkpt>
      <trkpt lat="48.20014" lon="-4.10921">
        <ele>99.63</ele>
        <time>2015-09-14T13:12:40Z</time>
      </trkpt>
      <trkpt lat="48.20016" lon="-4.10944">
        <ele>102.04</ele>
        <time>2015-09-14T13:12:55Z</time>
      </trkpt>
      <trkpt lat="48.20017" lon="-4.10952">
        <ele>103.96</ele>
        <time>2015-09-14T13:12:59Z</time>
      </trkpt>
      <trkpt lat="48.20018" lon="-4.10971">
        <ele>103.48</ele>
        <time>2015-09-14T13:13:10Z</time>
      </trkpt>
      <trkpt lat="48.20017" lon="-4.10996">
        <ele>104.44</ele>
        <time>2015-09-14T13:13:28Z</time>
      </trkpt>
      <trkpt lat="48.20013" lon="-4.11018">
        <ele>105.88</ele>
        <time>2015-09-14T13:13:46Z</time>
      </trkpt>
      <trkpt lat="48.20013" lon="-4.11038">
        <ele>106.84</ele>
        <time>2015-09-14T13:14:01Z</time>
      </trkpt>
      <trkpt lat="48.20014" lon="-4.1106">
        <ele>104.92</ele>
        <time>2015-09-14T13:14:17Z</time>
      </trkpt>
      <trkpt lat="48.20012" lon="-4.11078">
        <ele>103.96</ele>
        <time>2015-09-14T13:14:26Z</time>
      </trkpt>
      <trkpt lat="48.20011" lon="-4.111">
        <ele>101.56</ele>
        <time>2015-09-14T13:14:43Z</time>
      </trkpt>
      <trkpt lat="48.20018" lon="-4.11112">
        <ele>100.11</ele>
        <time>2015-09-14T13:14:58Z</time>
      </trkpt>
      <trkpt lat="48.20019" lon="-4.11112">
        <ele>100.11</ele>
        <time>2015-09-14T13:14:59Z</time>
      </trkpt>
      <trkpt lat="48.2003" lon="-4.11119">
        <ele>100.11</ele>
        <time>2015-09-14T13:15:12Z</time>
      </trkpt>
      <trkpt lat="48.20042" lon="-4.11135">
        <ele>100.11</ele>
        <time>2015-09-14T13:15:26Z</time>
      </trkpt>
      <trkpt lat="48.20052" lon="-4.11153">
        <ele>100.11</ele>
        <time>2015-09-14T13:15:42Z</time>
      </trkpt>
      <trkpt lat="48.20058" lon="-4.11163">
        <ele>100.11</ele>
        <time>2015-09-14T13:15:54Z</time>
      </trkpt>
      <trkpt lat="48.2007" lon="-4.11177">
        <ele>101.56</ele>
        <time>2015-09-14T13:16:11Z</time>
      </trkpt>
      <trkpt lat="48.20079" lon="-4.11188">
        <ele>102.04</ele>
        <time>2015-09-14T13:16:26Z</time>
      </trkpt>
      <trkpt lat="48.20082" lon="-4.11195">
        <ele>101.08</ele>
        <time>2015-09-14T13:16:47Z</time>
      </trkpt>
      <trkpt lat="48.20086" lon="-4.11201">
        <ele>102.52</ele>
        <time>2015-09-14T13:17:01Z</time>
      </trkpt>
      <trkpt lat="48.20097" lon="-4.11215">
        <ele>102.52</ele>
        <time>2015-09-14T13:17:19Z</time>
      </trkpt>
      <trkpt lat="48.20101" lon="-4.11226">
        <ele>105.4</ele>
        <time>2015-09-14T13:17:38Z</time>
      </trkpt>
      <trkpt lat="48.20098" lon="-4.1123">
        <ele>105.4</ele>
        <time>2015-09-14T13:17:59Z</time>
      </trkpt>
      <trkpt lat="48.20107" lon="-4.11244">
        <ele>108.29</ele>
        <time>2015-09-14T13:18:16Z</time>
      </trkpt>
      <trkpt lat="48.20121" lon="-4.11253">
        <ele>110.69</ele>
        <time>2015-09-14T13:18:32Z</time>
      </trkpt>
      <trkpt lat="48.20139" lon="-4.11265">
        <ele>111.65</ele>
        <time>2015-09-14T13:18:49Z</time>
      </trkpt>
      <trkpt lat="48.20147" lon="-4.11269">
        <ele>113.09</ele>
        <time>2015-09-14T13:19:09Z</time>
      </trkpt>
      <trkpt lat="48.20169" lon="-4.11279">
        <ele>113.57</ele>
        <time>2015-09-14T13:19:30Z</time>
      </trkpt>
      <trkpt lat="48.20184" lon="-4.11287">
        <ele>115.01</ele>
        <time>2015-09-14T13:19:47Z</time>
      </trkpt>
      <trkpt lat="48.20197" lon="-4.11297">
        <ele>116.46</ele>
        <time>2015-09-14T13:20:04Z</time>
      </trkpt>
      <trkpt lat="48.20206" lon="-4.11302">
        <ele>116.46</ele>
        <time>2015-09-14T13:20:19Z</time>
      </trkpt>
      <trkpt lat="48.20217" lon="-4.11303">
        <ele>116.94</ele>
        <time>2015-09-14T13:20:33Z</time>
      </trkpt>
      <trkpt lat="48.2023" lon="-4.11325">
        <ele>117.9</ele>
        <time>2015-09-14T13:20:50Z</time>
      </trkpt>
      <trkpt lat="48.20233" lon="-4.1133">
        <ele>117.9</ele>
        <time>2015-09-14T13:20:54Z</time>
      </trkpt>
      <trkpt lat="48.20231" lon="-4.11351">
        <ele>119.34</ele>
        <time>2015-09-14T13:21:09Z</time>
      </trkpt>
      <trkpt lat="48.20231" lon="-4.11355">
        <ele>117.9</ele>
        <time>2015-09-14T13:21:13Z</time>
      </trkpt>
      <trkpt lat="48.20238" lon="-4.11368">
        <ele>116.94</ele>
        <time>2015-09-14T13:21:27Z</time>
      </trkpt>
      <trkpt lat="48.20242" lon="-4.11378">
        <ele>116.94</ele>
        <time>2015-09-14T13:21:34Z</time>
      </trkpt>
      <trkpt lat="48.20245" lon="-4.11402">
        <ele>116.46</ele>
        <time>2015-09-14T13:21:49Z</time>
      </trkpt>
      <trkpt lat="48.20249" lon="-4.11432">
        <ele>116.46</ele>
        <time>2015-09-14T13:22:05Z</time>
      </trkpt>
      <trkpt lat="48.20252" lon="-4.11444">
        <ele>115.98</ele>
        <time>2015-09-14T13:22:13Z</time>
      </trkpt>
      <trkpt lat="48.20252" lon="-4.11455">
        <ele>115.98</ele>
        <time>2015-09-14T13:22:20Z</time>
      </trkpt>
      <trkpt lat="48.20259" lon="-4.11476">
        <ele>115.98</ele>
        <time>2015-09-14T13:22:35Z</time>
      </trkpt>
      <trkpt lat="48.20261" lon="-4.1148">
        <ele>115.98</ele>
        <time>2015-09-14T13:22:37Z</time>
      </trkpt>
      <trkpt lat="48.20264" lon="-4.11485">
        <ele>116.46</ele>
        <time>2015-09-14T13:22:40Z</time>
      </trkpt>
      <trkpt lat="48.20267" lon="-4.11497">
        <ele>115.98</ele>
        <time>2015-09-14T13:22:46Z</time>
      </trkpt>
      <trkpt lat="48.20268" lon="-4.11504">
        <ele>115.5</ele>
        <time>2015-09-14T13:22:49Z</time>
      </trkpt>
      <trkpt lat="48.20274" lon="-4.11526">
        <ele>115.5</ele>
        <time>2015-09-14T13:23:04Z</time>
      </trkpt>
      <trkpt lat="48.20278" lon="-4.11539">
        <ele>116.94</ele>
        <time>2015-09-14T13:23:13Z</time>
      </trkpt>
      <trkpt lat="48.20281" lon="-4.1155">
        <ele>117.9</ele>
        <time>2015-09-14T13:23:25Z</time>
      </trkpt>
      <trkpt lat="48.20293" lon="-4.11554">
        <ele>118.38</ele>
        <time>2015-09-14T13:23:41Z</time>
      </trkpt>
      <trkpt lat="48.20303" lon="-4.11558">
        <ele>118.38</ele>
        <time>2015-09-14T13:23:56Z</time>
      </trkpt>
      <trkpt lat="48.20304" lon="-4.11558">
        <ele>118.38</ele>
        <time>2015-09-14T13:23:58Z</time>
      </trkpt>
      <trkpt lat="48.20309" lon="-4.11563">
        <ele>118.86</ele>
        <time>2015-09-14T13:24:04Z</time>
      </trkpt>
      <trkpt lat="48.20327" lon="-4.11573">
        <ele>118.86</ele>
        <time>2015-09-14T13:24:21Z</time>
      </trkpt>
      <trkpt lat="48.20344" lon="-4.11585">
        <ele>118.86</ele>
        <time>2015-09-14T13:24:37Z</time>
      </trkpt>
      <trkpt lat="48.20361" lon="-4.11591">
        <ele>118.86</ele>
        <time>2015-09-14T13:24:54Z</time>
      </trkpt>
      <trkpt lat="48.20378" lon="-4.11589">
        <ele>119.34</ele>
        <time>2015-09-14T13:25:09Z</time>
      </trkpt>
      <trkpt lat="48.20388" lon="-4.11589">
        <ele>117.9</ele>
        <time>2015-09-14T13:25:18Z</time>
      </trkpt>
      <trkpt lat="48.20398" lon="-4.11582">
        <ele>114.53</ele>
        <time>2015-09-14T13:25:35Z</time>
      </trkpt>
      <trkpt lat="48.20409" lon="-4.11572">
        <ele>112.61</ele>
        <time>2015-09-14T13:25:51Z</time>
      </trkpt>
      <trkpt lat="48.20427" lon="-4.11559">
        <ele>110.69</ele>
        <time>2015-09-14T13:26:12Z</time>
      </trkpt>
      <trkpt lat="48.20433" lon="-4.1155">
        <ele>109.25</ele>
        <time>2015-09-14T13:26:27Z</time>
      </trkpt>
      <trkpt lat="48.20445" lon="-4.11535">
        <ele>106.84</ele>
        <time>2015-09-14T13:26:46Z</time>
      </trkpt>
      <trkpt lat="48.20448" lon="-4.11531">
        <ele>106.36</ele>
        <time>2015-09-14T13:26:51Z</time>
      </trkpt>
      <trkpt lat="48.2045" lon="-4.11528">
        <ele>106.36</ele>
        <time>2015-09-14T13:26:53Z</time>
      </trkpt>
      <trkpt lat="48.20459" lon="-4.11506">
        <ele>106.84</ele>
        <time>2015-09-14T13:27:10Z</time>
      </trkpt>
      <trkpt lat="48.20473" lon="-4.11504">
        <ele>109.73</ele>
        <time>2015-09-14T13:27:32Z</time>
      </trkpt>
      <trkpt lat="48.20491" lon="-4.11505">
        <ele>111.17</ele>
        <time>2015-09-14T13:27:52Z</time>
      </trkpt>
      <trkpt lat="48.20503" lon="-4.11506">
        <ele>112.61</ele>
        <time>2015-09-14T13:28:07Z</time>
      </trkpt>
      <trkpt lat="48.20516" lon="-4.11502">
        <ele>113.57</ele>
        <time>2015-09-14T13:28:22Z</time>
      </trkpt>
      <trkpt lat="48.20531" lon="-4.11496">
        <ele>114.53</ele>
        <time>2015-09-14T13:28:37Z</time>
      </trkpt>
      <trkpt lat="48.2054" lon="-4.1149">
        <ele>116.46</ele>
        <time>2015-09-14T13:28:51Z</time>
      </trkpt>
      <trkpt lat="48.20555" lon="-4.11483">
        <ele>118.38</ele>
        <time>2015-09-14T13:29:06Z</time>
      </trkpt>
      <trkpt lat="48.20568" lon="-4.11477">
        <ele>121.26</ele>
        <time>2015-09-14T13:29:21Z</time>
      </trkpt>
      <trkpt lat="48.20585" lon="-4.11472">
        <ele>122.71</ele>
        <time>2015-09-14T13:29:42Z</time>
      </trkpt>
      <trkpt lat="48.20598" lon="-4.11469">
        <ele>124.63</ele>
        <time>2015-09-14T13:29:56Z</time>
      </trkpt>
      <trkpt lat="48.20606" lon="-4.1147">
        <ele>127.51</ele>
        <time>2015-09-14T13:30:09Z</time>
      </trkpt>
      <trkpt lat="48.20614" lon="-4.11462">
        <ele>128.47</ele>
        <time>2015-09-14T13:30:26Z</time>
      </trkpt>
      <trkpt lat="48.20617" lon="-4.1145">
        <ele>129.92</ele>
        <time>2015-09-14T13:30:42Z</time>
      </trkpt>
      <trkpt lat="48.20621" lon="-4.11445">
        <ele>128.95</ele>
        <time>2015-09-14T13:30:49Z</time>
      </trkpt>
      <trkpt lat="48.20633" lon="-4.11428">
        <ele>128.47</ele>
        <time>2015-09-14T13:31:04Z</time>
      </trkpt>
      <trkpt lat="48.2066" lon="-4.1141">
        <ele>127.99</ele>
        <time>2015-09-14T13:31:23Z</time>
      </trkpt>
      <trkpt lat="48.20681" lon="-4.11406">
        <ele>125.59</ele>
        <time>2015-09-14T13:31:38Z</time>
      </trkpt>
      <trkpt lat="48.20693" lon="-4.11415">
        <ele>125.59</ele>
        <time>2015-09-14T13:31:52Z</time>
      </trkpt>
      <trkpt lat="48.207" lon="-4.11442">
        <ele>125.59</ele>
        <time>2015-09-14T13:32:07Z</time>
      </trkpt>
      <trkpt lat="48.20708" lon="-4.11457">
        <ele>126.55</ele>
        <time>2015-09-14T13:32:22Z</time>
      </trkpt>
      <trkpt lat="48.20716" lon="-4.11476">
        <ele>127.03</ele>
        <time>2015-09-14T13:32:38Z</time>
      </trkpt>
      <trkpt lat="48.20729" lon="-4.11496">
        <ele>125.11</ele>
        <time>2015-09-14T13:32:54Z</time>
      </trkpt>
      <trkpt lat="48.20736" lon="-4.1152">
        <ele>124.63</ele>
        <time>2015-09-14T13:33:11Z</time>
      </trkpt>
      <trkpt lat="48.20737" lon="-4.11526">
        <ele>126.07</ele>
        <time>2015-09-14T13:33:15Z</time>
      </trkpt>
      <trkpt lat="48.20737" lon="-4.11544">
        <ele>127.51</ele>
        <time>2015-09-14T13:33:28Z</time>
      </trkpt>
      <trkpt lat="48.20739" lon="-4.11549">
        <ele>125.59</ele>
        <time>2015-09-14T13:33:32Z</time>
      </trkpt>
      <trkpt lat="48.20742" lon="-4.11553">
        <ele>125.59</ele>
        <time>2015-09-14T13:33:36Z</time>
      </trkpt>
      <trkpt lat="48.20756" lon="-4.11568">
        <ele>127.03</ele>
        <time>2015-09-14T13:33:50Z</time>
      </trkpt>
      <trkpt lat="48.20771" lon="-4.11579">
        <ele>127.99</ele>
        <time>2015-09-14T13:34:07Z</time>
      </trkpt>
      <trkpt lat="48.20787" lon="-4.11595">
        <ele>128.47</ele>
        <time>2015-09-14T13:34:21Z</time>
      </trkpt>
      <trkpt lat="48.20798" lon="-4.11608">
        <ele>130.4</ele>
        <time>2015-09-14T13:34:37Z</time>
      </trkpt>
      <trkpt lat="48.20807" lon="-4.11612">
        <ele>130.4</ele>
        <time>2015-09-14T13:34:48Z</time>
      </trkpt>
      <trkpt lat="48.20819" lon="-4.11616">
        <ele>128.95</ele>
        <time>2015-09-14T13:34:59Z</time>
      </trkpt>
      <trkpt lat="48.20841" lon="-4.11625">
        <ele>126.07</ele>
        <time>2015-09-14T13:35:18Z</time>
      </trkpt>
      <trkpt lat="48.20848" lon="-4.11632">
        <ele>125.59</ele>
        <time>2015-09-14T13:35:35Z</time>
      </trkpt>
      <trkpt lat="48.20848" lon="-4.11633">
        <ele>125.11</ele>
        <time>2015-09-14T13:35:57Z</time>
      </trkpt>
      <trkpt lat="48.20848" lon="-4.11634">
        <ele>126.55</ele>
        <time>2015-09-14T13:36:14Z</time>
      </trkpt>
      <trkpt lat="48.20849" lon="-4.11634">
        <ele>124.63</ele>
        <time>2015-09-14T13:36:41Z</time>
      </trkpt>
      <trkpt lat="48.20849" lon="-4.11637">
        <ele>126.07</ele>
        <time>2015-09-14T13:37:07Z</time>
      </trkpt>
      <trkpt lat="48.2085" lon="-4.11638">
        <ele>126.55</ele>
        <time>2015-09-14T13:37:30Z</time>
      </trkpt>
      <trkpt lat="48.2085" lon="-4.11638">
        <ele>126.07</ele>
        <time>2015-09-14T13:37:57Z</time>
      </trkpt>
      <trkpt lat="48.20854" lon="-4.11647">
        <ele>126.07</ele>
        <time>2015-09-14T13:38:19Z</time>
      </trkpt>
      <trkpt lat="48.20856" lon="-4.1165">
        <ele>126.55</ele>
        <time>2015-09-14T13:38:40Z</time>
      </trkpt>
      <trkpt lat="48.20862" lon="-4.11661">
        <ele>126.55</ele>
        <time>2015-09-14T13:38:54Z</time>
      </trkpt>
      <trkpt lat="48.20869" lon="-4.11676">
        <ele>127.51</ele>
        <time>2015-09-14T13:39:13Z</time>
      </trkpt>
      <trkpt lat="48.20867" lon="-4.11678">
        <ele>128.95</ele>
        <time>2015-09-14T13:39:22Z</time>
      </trkpt>
      <trkpt lat="48.20867" lon="-4.11679">
        <ele>128.95</ele>
        <time>2015-09-14T13:39:47Z</time>
      </trkpt>
      <trkpt lat="48.20876" lon="-4.11689">
        <ele>127.51</ele>
        <time>2015-09-14T13:40:01Z</time>
      </trkpt>
      <trkpt lat="48.2088" lon="-4.11709">
        <ele>128.95</ele>
        <time>2015-09-14T13:40:19Z</time>
      </trkpt>
      <trkpt lat="48.2088" lon="-4.11712">
        <ele>130.4</ele>
        <time>2015-09-14T13:40:22Z</time>
      </trkpt>
      <trkpt lat="48.20875" lon="-4.11724">
        <ele>133.76</ele>
        <time>2015-09-14T13:40:35Z</time>
      </trkpt>
      <trkpt lat="48.20863" lon="-4.11737">
        <ele>136.64</ele>
        <time>2015-09-14T13:40:51Z</time>
      </trkpt>
      <trkpt lat="48.20849" lon="-4.11755">
        <ele>140.01</ele>
        <time>2015-09-14T13:41:09Z</time>
      </trkpt>
      <trkpt lat="48.20838" lon="-4.11766">
        <ele>142.89</ele>
        <time>2015-09-14T13:41:22Z</time>
      </trkpt>
      <trkpt lat="48.20825" lon="-4.11778">
        <ele>145.78</ele>
        <time>2015-09-14T13:41:38Z</time>
      </trkpt>
      <trkpt lat="48.20815" lon="-4.11788">
        <ele>147.7</ele>
        <time>2015-09-14T13:41:54Z</time>
      </trkpt>
      <trkpt lat="48.20805" lon="-4.11801">
        <ele>150.1</ele>
        <time>2015-09-14T13:42:10Z</time>
      </trkpt>
      <trkpt lat="48.20789" lon="-4.11815">
        <ele>152.99</ele>
        <time>2015-09-14T13:42:30Z</time>
      </trkpt>
      <trkpt lat="48.2078" lon="-4.11827">
        <ele>154.91</ele>
        <time>2015-09-14T13:42:43Z</time>
      </trkpt>
      <trkpt lat="48.20769" lon="-4.11834">
        <ele>157.31</ele>
        <time>2015-09-14T13:42:59Z</time>
      </trkpt>
      <trkpt lat="48.20763" lon="-4.11831">
        <ele>158.27</ele>
        <time>2015-09-14T13:43:09Z</time>
      </trkpt>
      <trkpt lat="48.20754" lon="-4.1181">
        <ele>157.79</ele>
        <time>2015-09-14T13:43:28Z</time>
      </trkpt>
      <trkpt lat="48.20753" lon="-4.11804">
        <ele>156.83</ele>
        <time>2015-09-14T13:43:44Z</time>
      </trkpt>
      <trkpt lat="48.20751" lon="-4.11801">
        <ele>157.79</ele>
        <time>2015-09-14T13:43:50Z</time>
      </trkpt>
      <trkpt lat="48.20753" lon="-4.11798">
        <ele>157.79</ele>
        <time>2015-09-14T13:44:13Z</time>
      </trkpt>
      <trkpt lat="48.20752" lon="-4.11799">
        <ele>158.27</ele>
        <time>2015-09-14T13:44:36Z</time>
      </trkpt>
      <trkpt lat="48.20752" lon="-4.11799">
        <ele>158.27</ele>
        <time>2015-09-14T13:44:37Z</time>
      </trkpt>
      <trkpt lat="48.20752" lon="-4.11799">
        <ele>156.83</ele>
        <time>2015-09-14T13:44:39Z</time>
      </trkpt>
      <trkpt lat="48.20752" lon="-4.11798">
        <ele>157.31</ele>
        <time>2015-09-14T13:45:03Z</time>
      </trkpt>
      <trkpt lat="48.20752" lon="-4.11799">
        <ele>156.83</ele>
        <time>2015-09-14T13:45:29Z</time>
      </trkpt>
      <trkpt lat="48.20752" lon="-4.11799">
        <ele>154.91</ele>
        <time>2015-09-14T13:45:34Z</time>
      </trkpt>
      <trkpt lat="48.20753" lon="-4.118">
        <ele>156.35</ele>
        <time>2015-09-14T13:45:37Z</time>
      </trkpt>
      <trkpt lat="48.20753" lon="-4.118">
        <ele>157.31</ele>
        <time>2015-09-14T13:45:50Z</time>
      </trkpt>
      <trkpt lat="48.20752" lon="-4.11803">
        <ele>157.31</ele>
        <time>2015-09-14T13:46:05Z</time>
      </trkpt>
      <trkpt lat="48.20749" lon="-4.11819">
        <ele>156.35</ele>
        <time>2015-09-14T13:46:20Z</time>
      </trkpt>
      <trkpt lat="48.20744" lon="-4.1183">
        <ele>158.27</ele>
        <time>2015-09-14T13:46:33Z</time>
      </trkpt>
      <trkpt lat="48.20744" lon="-4.1183">
        <ele>158.27</ele>
        <time>2015-09-14T13:46:34Z</time>
      </trkpt>
      <trkpt lat="48.20731" lon="-4.11846">
        <ele>159.24</ele>
        <time>2015-09-14T13:46:50Z</time>
      </trkpt>
      <trkpt lat="48.20721" lon="-4.11863">
        <ele>159.72</ele>
        <time>2015-09-14T13:47:05Z</time>
      </trkpt>
      <trkpt lat="48.20718" lon="-4.11877">
        <ele>159.72</ele>
        <time>2015-09-14T13:47:16Z</time>
      </trkpt>
      <trkpt lat="48.20715" lon="-4.11879">
        <ele>158.27</ele>
        <time>2015-09-14T13:47:19Z</time>
      </trkpt>
      <trkpt lat="48.20701" lon="-4.1189">
        <ele>158.27</ele>
        <time>2015-09-14T13:47:34Z</time>
      </trkpt>
      <trkpt lat="48.20699" lon="-4.11892">
        <ele>158.27</ele>
        <time>2015-09-14T13:47:36Z</time>
      </trkpt>
      <trkpt lat="48.20694" lon="-4.11896">
        <ele>158.27</ele>
        <time>2015-09-14T13:47:49Z</time>
      </trkpt>
      <trkpt lat="48.20693" lon="-4.11896">
        <ele>159.72</ele>
        <time>2015-09-14T13:47:59Z</time>
      </trkpt>
      <trkpt lat="48.20691" lon="-4.119">
        <ele>158.75</ele>
        <time>2015-09-14T13:48:05Z</time>
      </trkpt>
      <trkpt lat="48.20691" lon="-4.11917">
        <ele>159.72</ele>
        <time>2015-09-14T13:48:17Z</time>
      </trkpt>
      <trkpt lat="48.20699" lon="-4.11941">
        <ele>157.31</ele>
        <time>2015-09-14T13:48:35Z</time>
      </trkpt>
      <trkpt lat="48.20701" lon="-4.11945">
        <ele>155.39</ele>
        <time>2015-09-14T13:48:38Z</time>
      </trkpt>
      <trkpt lat="48.20714" lon="-4.11968">
        <ele>152.51</ele>
        <time>2015-09-14T13:48:57Z</time>
      </trkpt>
      <trkpt lat="48.20722" lon="-4.11984">
        <ele>149.14</ele>
        <time>2015-09-14T13:49:13Z</time>
      </trkpt>
      <trkpt lat="48.20723" lon="-4.11986">
        <ele>148.18</ele>
        <time>2015-09-14T13:49:15Z</time>
      </trkpt>
      <trkpt lat="48.20728" lon="-4.11999">
        <ele>145.3</ele>
        <time>2015-09-14T13:49:27Z</time>
      </trkpt>
      <trkpt lat="48.20734" lon="-4.12014">
        <ele>141.93</ele>
        <time>2015-09-14T13:49:41Z</time>
      </trkpt>
      <trkpt lat="48.20741" lon="-4.12024">
        <ele>140.01</ele>
        <time>2015-09-14T13:49:54Z</time>
      </trkpt>
      <trkpt lat="48.20742" lon="-4.12032">
        <ele>140.01</ele>
        <time>2015-09-14T13:50:00Z</time>
      </trkpt>
      <trkpt lat="48.20741" lon="-4.12058">
        <ele>140.01</ele>
        <time>2015-09-14T13:50:16Z</time>
      </trkpt>
      <trkpt lat="48.20746" lon="-4.12083">
        <ele>142.41</ele>
        <time>2015-09-14T13:50:34Z</time>
      </trkpt>
      <trkpt lat="48.20747" lon="-4.12084">
        <ele>142.41</ele>
        <time>2015-09-14T13:50:35Z</time>
      </trkpt>
      <trkpt lat="48.20753" lon="-4.12105">
        <ele>143.85</ele>
        <time>2015-09-14T13:50:51Z</time>
      </trkpt>
      <trkpt lat="48.20762" lon="-4.1212">
        <ele>145.78</ele>
        <time>2015-09-14T13:51:07Z</time>
      </trkpt>
      <trkpt lat="48.20765" lon="-4.12131">
        <ele>149.14</ele>
        <time>2015-09-14T13:51:20Z</time>
      </trkpt>
      <trkpt lat="48.20772" lon="-4.12149">
        <ele>149.62</ele>
        <time>2015-09-14T13:51:35Z</time>
      </trkpt>
      <trkpt lat="48.20778" lon="-4.12179">
        <ele>150.58</ele>
        <time>2015-09-14T13:51:54Z</time>
      </trkpt>
      <trkpt lat="48.20784" lon="-4.12199">
        <ele>152.51</ele>
        <time>2015-09-14T13:52:12Z</time>
      </trkpt>
      <trkpt lat="48.2079" lon="-4.12218">
        <ele>154.43</ele>
        <time>2015-09-14T13:52:27Z</time>
      </trkpt>
      <trkpt lat="48.20797" lon="-4.12245">
        <ele>155.87</ele>
        <time>2015-09-14T13:52:45Z</time>
      </trkpt>
      <trkpt lat="48.208" lon="-4.12253">
        <ele>156.35</ele>
        <time>2015-09-14T13:52:50Z</time>
      </trkpt>
      <trkpt lat="48.20802" lon="-4.12282">
        <ele>158.27</ele>
        <time>2015-09-14T13:53:09Z</time>
      </trkpt>
      <trkpt lat="48.20802" lon="-4.12307">
        <ele>159.72</ele>
        <time>2015-09-14T13:53:25Z</time>
      </trkpt>
      <trkpt lat="48.20798" lon="-4.12333">
        <ele>162.12</ele>
        <time>2015-09-14T13:53:44Z</time>
      </trkpt>
      <trkpt lat="48.20792" lon="-4.12351">
        <ele>161.16</ele>
        <time>2015-09-14T13:54:00Z</time>
      </trkpt>
      <trkpt lat="48.20791" lon="-4.12353">
        <ele>165.48</ele>
        <time>2015-09-14T13:54:02Z</time>
      </trkpt>
      <trkpt lat="48.2079" lon="-4.12354">
        <ele>165.48</ele>
        <time>2015-09-14T13:54:03Z</time>
      </trkpt>
      <trkpt lat="48.20786" lon="-4.12366">
        <ele>165.48</ele>
        <time>2015-09-14T13:54:12Z</time>
      </trkpt>
      <trkpt lat="48.20773" lon="-4.12388">
        <ele>168.85</ele>
        <time>2015-09-14T13:54:30Z</time>
      </trkpt>
      <trkpt lat="48.20764" lon="-4.12398">
        <ele>170.29</ele>
        <time>2015-09-14T13:54:46Z</time>
      </trkpt>
      <trkpt lat="48.2076" lon="-4.12398">
        <ele>170.29</ele>
        <time>2015-09-14T13:55:13Z</time>
      </trkpt>
      <trkpt lat="48.20761" lon="-4.12397">
        <ele>168.85</ele>
        <time>2015-09-14T13:55:25Z</time>
      </trkpt>
      <trkpt lat="48.20762" lon="-4.12395">
        <ele>168.85</ele>
        <time>2015-09-14T13:55:44Z</time>
      </trkpt>
      <trkpt lat="48.20762" lon="-4.12394">
        <ele>170.29</ele>
        <time>2015-09-14T13:55:54Z</time>
      </trkpt>
      <trkpt lat="48.20761" lon="-4.12395">
        <ele>169.81</ele>
        <time>2015-09-14T13:56:10Z</time>
      </trkpt>
      <trkpt lat="48.20761" lon="-4.12396">
        <ele>168.37</ele>
        <time>2015-09-14T13:56:21Z</time>
      </trkpt>
      <trkpt lat="48.2076" lon="-4.12397">
        <ele>168.37</ele>
        <time>2015-09-14T13:56:51Z</time>
      </trkpt>
      <trkpt lat="48.20759" lon="-4.12399">
        <ele>170.77</ele>
        <time>2015-09-14T13:57:07Z</time>
      </trkpt>
      <trkpt lat="48.20759" lon="-4.12399">
        <ele>169.33</ele>
        <time>2015-09-14T13:57:10Z</time>
      </trkpt>
      <trkpt lat="48.2076" lon="-4.12399">
        <ele>170.77</ele>
        <time>2015-09-14T13:57:13Z</time>
      </trkpt>
      <trkpt lat="48.20758" lon="-4.12396">
        <ele>170.77</ele>
        <time>2015-09-14T13:57:37Z</time>
      </trkpt>
      <trkpt lat="48.20758" lon="-4.12395">
        <ele>169.33</ele>
        <time>2015-09-14T13:57:43Z</time>
      </trkpt>
      <trkpt lat="48.2076" lon="-4.12396">
        <ele>169.33</ele>
        <time>2015-09-14T13:58:07Z</time>
      </trkpt>
      <trkpt lat="48.2076" lon="-4.12398">
        <ele>169.33</ele>
        <time>2015-09-14T13:58:25Z</time>
      </trkpt>
      <trkpt lat="48.20761" lon="-4.12397">
        <ele>168.85</ele>
        <time>2015-09-14T13:58:55Z</time>
      </trkpt>
      <trkpt lat="48.20762" lon="-4.12397">
        <ele>168.85</ele>
        <time>2015-09-14T13:59:25Z</time>
      </trkpt>
      <trkpt lat="48.20763" lon="-4.12399">
        <ele>169.81</ele>
        <time>2015-09-14T13:59:47Z</time>
      </trkpt>
      <trkpt lat="48.20752" lon="-4.12407">
        <ele>169.81</ele>
        <time>2015-09-14T14:00:01Z</time>
      </trkpt>
      <trkpt lat="48.20739" lon="-4.12417">
        <ele>171.73</ele>
        <time>2015-09-14T14:00:16Z</time>
      </trkpt>
      <trkpt lat="48.2073" lon="-4.12431">
        <ele>173.17</ele>
        <time>2015-09-14T14:00:30Z</time>
      </trkpt>
      <trkpt lat="48.20729" lon="-4.12438">
        <ele>173.17</ele>
        <time>2015-09-14T14:00:34Z</time>
      </trkpt>
      <trkpt lat="48.20729" lon="-4.12443">
        <ele>173.17</ele>
        <time>2015-09-14T14:00:37Z</time>
      </trkpt>
      <trkpt lat="48.20734" lon="-4.12474">
        <ele>174.62</ele>
        <time>2015-09-14T14:00:56Z</time>
      </trkpt>
      <trkpt lat="48.20737" lon="-4.12496">
        <ele>175.1</ele>
        <time>2015-09-14T14:01:08Z</time>
      </trkpt>
      <trkpt lat="48.20738" lon="-4.12504">
        <ele>176.06</ele>
        <time>2015-09-14T14:01:15Z</time>
      </trkpt>
      <trkpt lat="48.20736" lon="-4.12516">
        <ele>175.58</ele>
        <time>2015-09-14T14:01:22Z</time>
      </trkpt>
      <trkpt lat="48.20733" lon="-4.12521">
        <ele>175.58</ele>
        <time>2015-09-14T14:01:26Z</time>
      </trkpt>
      <trkpt lat="48.20727" lon="-4.12539">
        <ele>177.98</ele>
        <time>2015-09-14T14:01:38Z</time>
      </trkpt>
      <trkpt lat="48.20718" lon="-4.1256">
        <ele>177.98</ele>
        <time>2015-09-14T14:01:54Z</time>
      </trkpt>
      <trkpt lat="48.20702" lon="-4.12575">
        <ele>179.9</ele>
        <time>2015-09-14T14:02:11Z</time>
      </trkpt>
      <trkpt lat="48.20687" lon="-4.12584">
        <ele>181.35</ele>
        <time>2015-09-14T14:02:26Z</time>
      </trkpt>
      <trkpt lat="48.20677" lon="-4.12588">
        <ele>182.31</ele>
        <time>2015-09-14T14:02:36Z</time>
      </trkpt>
      <trkpt lat="48.20674" lon="-4.12591">
        <ele>184.23</ele>
        <time>2015-09-14T14:02:40Z</time>
      </trkpt>
      <trkpt lat="48.20671" lon="-4.12591">
        <ele>182.79</ele>
        <time>2015-09-14T14:02:43Z</time>
      </trkpt>
      <trkpt lat="48.2067" lon="-4.12591">
        <ele>182.31</ele>
        <time>2015-09-14T14:02:52Z</time>
      </trkpt>
      <trkpt lat="48.20667" lon="-4.12593">
        <ele>183.75</ele>
        <time>2015-09-14T14:02:55Z</time>
      </trkpt>
      <trkpt lat="48.20655" lon="-4.126">
        <ele>185.19</ele>
        <time>2015-09-14T14:03:09Z</time>
      </trkpt>
      <trkpt lat="48.20654" lon="-4.12601">
        <ele>185.19</ele>
        <time>2015-09-14T14:03:10Z</time>
      </trkpt>
      <trkpt lat="48.20651" lon="-4.12605">
        <ele>186.63</ele>
        <time>2015-09-14T14:03:13Z</time>
      </trkpt>
      <trkpt lat="48.20635" lon="-4.12614">
        <ele>188.08</ele>
        <time>2015-09-14T14:03:30Z</time>
      </trkpt>
      <trkpt lat="48.2063" lon="-4.12614">
        <ele>188.56</ele>
        <time>2015-09-14T14:03:36Z</time>
      </trkpt>
      <trkpt lat="48.20624" lon="-4.12607">
        <ele>189.04</ele>
        <time>2015-09-14T14:03:46Z</time>
      </trkpt>
      <trkpt lat="48.20623" lon="-4.12604">
        <ele>189.04</ele>
        <time>2015-09-14T14:03:48Z</time>
      </trkpt>
      <trkpt lat="48.2062" lon="-4.12598">
        <ele>189.04</ele>
        <time>2015-09-14T14:03:53Z</time>
      </trkpt>
      <trkpt lat="48.20612" lon="-4.1258">
        <ele>190.96</ele>
        <time>2015-09-14T14:04:08Z</time>
      </trkpt>
      <trkpt lat="48.20603" lon="-4.12551">
        <ele>191.44</ele>
        <time>2015-09-14T14:04:25Z</time>
      </trkpt>
      <trkpt lat="48.20603" lon="-4.12547">
        <ele>190</ele>
        <time>2015-09-14T14:04:28Z</time>
      </trkpt>
      <trkpt lat="48.20599" lon="-4.12538">
        <ele>190</ele>
        <time>2015-09-14T14:04:42Z</time>
      </trkpt>
      <trkpt lat="48.2059" lon="-4.12519">
        <ele>189.04</ele>
        <time>2015-09-14T14:04:55Z</time>
      </trkpt>
      <trkpt lat="48.20585" lon="-4.12518">
        <ele>189.04</ele>
        <time>2015-09-14T14:05:01Z</time>
      </trkpt>
      <trkpt lat="48.20582" lon="-4.12519">
        <ele>190.48</ele>
        <time>2015-09-14T14:05:04Z</time>
      </trkpt>
      <trkpt lat="48.20575" lon="-4.12514">
        <ele>190.96</ele>
        <time>2015-09-14T14:05:18Z</time>
      </trkpt>
      <trkpt lat="48.20574" lon="-4.12513">
        <ele>190.96</ele>
        <time>2015-09-14T14:05:35Z</time>
      </trkpt>
      <trkpt lat="48.20573" lon="-4.12513">
        <ele>191.44</ele>
        <time>2015-09-14T14:05:49Z</time>
      </trkpt>
      <trkpt lat="48.20574" lon="-4.12514">
        <ele>190.48</ele>
        <time>2015-09-14T14:06:04Z</time>
      </trkpt>
      <trkpt lat="48.20571" lon="-4.12518">
        <ele>192.4</ele>
        <time>2015-09-14T14:06:13Z</time>
      </trkpt>
      <trkpt lat="48.20564" lon="-4.12523">
        <ele>192.88</ele>
        <time>2015-09-14T14:06:30Z</time>
      </trkpt>
      <trkpt lat="48.20564" lon="-4.12521">
        <ele>192.88</ele>
        <time>2015-09-14T14:06:51Z</time>
      </trkpt>
      <trkpt lat="48.20562" lon="-4.12526">
        <ele>192.4</ele>
        <time>2015-09-14T14:07:16Z</time>
      </trkpt>
      <trkpt lat="48.20562" lon="-4.12525">
        <ele>192.88</ele>
        <time>2015-09-14T14:07:32Z</time>
      </trkpt>
      <trkpt lat="48.20553" lon="-4.12532">
        <ele>193.84</ele>
        <time>2015-09-14T14:07:46Z</time>
      </trkpt>
      <trkpt lat="48.20552" lon="-4.12532">
        <ele>193.84</ele>
        <time>2015-09-14T14:07:47Z</time>
      </trkpt>
      <trkpt lat="48.20548" lon="-4.12536">
        <ele>194.32</ele>
        <time>2015-09-14T14:07:52Z</time>
      </trkpt>
      <trkpt lat="48.20536" lon="-4.12545">
        <ele>197.21</ele>
        <time>2015-09-14T14:08:06Z</time>
      </trkpt>
      <trkpt lat="48.20522" lon="-4.12555">
        <ele>199.13</ele>
        <time>2015-09-14T14:08:22Z</time>
      </trkpt>
      <trkpt lat="48.20514" lon="-4.12561">
        <ele>200.57</ele>
        <time>2015-09-14T14:08:31Z</time>
      </trkpt>
      <trkpt lat="48.20499" lon="-4.12572">
        <ele>201.53</ele>
        <time>2015-09-14T14:08:46Z</time>
      </trkpt>
      <trkpt lat="48.20497" lon="-4.12574">
        <ele>200.09</ele>
        <time>2015-09-14T14:08:48Z</time>
      </trkpt>
      <trkpt lat="48.20493" lon="-4.12577">
        <ele>202.01</ele>
        <time>2015-09-14T14:08:53Z</time>
      </trkpt>
      <trkpt lat="48.2048" lon="-4.12586">
        <ele>202.01</ele>
        <time>2015-09-14T14:09:09Z</time>
      </trkpt>
      <trkpt lat="48.20479" lon="-4.12586">
        <ele>202.01</ele>
        <time>2015-09-14T14:09:10Z</time>
      </trkpt>
      <trkpt lat="48.20475" lon="-4.12589">
        <ele>203.46</ele>
        <time>2015-09-14T14:09:14Z</time>
      </trkpt>
      <trkpt lat="48.20473" lon="-4.1259">
        <ele>200.09</ele>
        <time>2015-09-14T14:09:17Z</time>
      </trkpt>
      <trkpt lat="48.20472" lon="-4.1259">
        <ele>200.09</ele>
        <time>2015-09-14T14:09:18Z</time>
      </trkpt>
      <trkpt lat="48.2047" lon="-4.12592">
        <ele>202.49</ele>
        <time>2015-09-14T14:09:20Z</time>
      </trkpt>
      <trkpt lat="48.20468" lon="-4.12593">
        <ele>205.86</ele>
        <time>2015-09-14T14:09:23Z</time>
      </trkpt>
      <trkpt lat="48.20466" lon="-4.12595">
        <ele>202.01</ele>
        <time>2015-09-14T14:09:26Z</time>
      </trkpt>
      <trkpt lat="48.20465" lon="-4.12595">
        <ele>202.01</ele>
        <time>2015-09-14T14:09:27Z</time>
      </trkpt>
      <trkpt lat="48.20462" lon="-4.12597">
        <ele>201.53</ele>
        <time>2015-09-14T14:09:30Z</time>
      </trkpt>
      <trkpt lat="48.2046" lon="-4.12599">
        <ele>203.94</ele>
        <time>2015-09-14T14:09:33Z</time>
      </trkpt>
      <trkpt lat="48.20455" lon="-4.12603">
        <ele>202.49</ele>
        <time>2015-09-14T14:09:38Z</time>
      </trkpt>
      <trkpt lat="48.20454" lon="-4.12604">
        <ele>204.42</ele>
        <time>2015-09-14T14:09:40Z</time>
      </trkpt>
      <trkpt lat="48.20443" lon="-4.12612">
        <ele>204.9</ele>
        <time>2015-09-14T14:09:54Z</time>
      </trkpt>
      <trkpt lat="48.20438" lon="-4.12616">
        <ele>204.42</ele>
        <time>2015-09-14T14:09:59Z</time>
      </trkpt>
      <trkpt lat="48.20427" lon="-4.12624">
        <ele>207.3</ele>
        <time>2015-09-14T14:10:11Z</time>
      </trkpt>
      <trkpt lat="48.20423" lon="-4.12627">
        <ele>205.38</ele>
        <time>2015-09-14T14:10:16Z</time>
      </trkpt>
      <trkpt lat="48.20417" lon="-4.12631">
        <ele>208.74</ele>
        <time>2015-09-14T14:10:22Z</time>
      </trkpt>
      <trkpt lat="48.20399" lon="-4.12644">
        <ele>210.67</ele>
        <time>2015-09-14T14:10:40Z</time>
      </trkpt>
      <trkpt lat="48.20392" lon="-4.1265">
        <ele>211.63</ele>
        <time>2015-09-14T14:10:49Z</time>
      </trkpt>
      <trkpt lat="48.20376" lon="-4.1266">
        <ele>208.74</ele>
        <time>2015-09-14T14:11:06Z</time>
      </trkpt>
      <trkpt lat="48.20375" lon="-4.12661">
        <ele>212.59</ele>
        <time>2015-09-14T14:11:08Z</time>
      </trkpt>
      <trkpt lat="48.20374" lon="-4.12662">
        <ele>212.59</ele>
        <time>2015-09-14T14:11:09Z</time>
      </trkpt>
      <trkpt lat="48.20371" lon="-4.12663">
        <ele>215.95</ele>
        <time>2015-09-14T14:11:12Z</time>
      </trkpt>
      <trkpt lat="48.20371" lon="-4.12663">
        <ele>215.95</ele>
        <time>2015-09-14T14:11:13Z</time>
      </trkpt>
      <trkpt lat="48.20369" lon="-4.12665">
        <ele>214.03</ele>
        <time>2015-09-14T14:11:16Z</time>
      </trkpt>
      <trkpt lat="48.20361" lon="-4.12671">
        <ele>213.55</ele>
        <time>2015-09-14T14:11:25Z</time>
      </trkpt>
      <trkpt lat="48.20359" lon="-4.12673">
        <ele>215.47</ele>
        <time>2015-09-14T14:11:28Z</time>
      </trkpt>
      <trkpt lat="48.20356" lon="-4.12675">
        <ele>215.47</ele>
        <time>2015-09-14T14:11:31Z</time>
      </trkpt>
      <trkpt lat="48.20352" lon="-4.12677">
        <ele>214.51</ele>
        <time>2015-09-14T14:11:35Z</time>
      </trkpt>
      <trkpt lat="48.20349" lon="-4.1268">
        <ele>215.95</ele>
        <time>2015-09-14T14:11:39Z</time>
      </trkpt>
      <trkpt lat="48.20347" lon="-4.12682">
        <ele>214.51</ele>
        <time>2015-09-14T14:11:41Z</time>
      </trkpt>
      <trkpt lat="48.20345" lon="-4.12684">
        <ele>215.95</ele>
        <time>2015-09-14T14:11:43Z</time>
      </trkpt>
      <trkpt lat="48.20343" lon="-4.12685">
        <ele>213.07</ele>
        <time>2015-09-14T14:11:45Z</time>
      </trkpt>
      <trkpt lat="48.2034" lon="-4.12687">
        <ele>215.47</ele>
        <time>2015-09-14T14:11:48Z</time>
      </trkpt>
      <trkpt lat="48.20338" lon="-4.12688">
        <ele>213.55</ele>
        <time>2015-09-14T14:11:50Z</time>
      </trkpt>
      <trkpt lat="48.20336" lon="-4.12689">
        <ele>216.91</ele>
        <time>2015-09-14T14:11:52Z</time>
      </trkpt>
      <trkpt lat="48.20332" lon="-4.12693">
        <ele>211.15</ele>
        <time>2015-09-14T14:11:57Z</time>
      </trkpt>
      <trkpt lat="48.20331" lon="-4.12694">
        <ele>213.07</ele>
        <time>2015-09-14T14:11:58Z</time>
      </trkpt>
      <trkpt lat="48.20329" lon="-4.12696">
        <ele>216.43</ele>
        <time>2015-09-14T14:12:00Z</time>
      </trkpt>
      <trkpt lat="48.20324" lon="-4.12699">
        <ele>216.91</ele>
        <time>2015-09-14T14:12:05Z</time>
      </trkpt>
      <trkpt lat="48.20319" lon="-4.12703">
        <ele>216.91</ele>
        <time>2015-09-14T14:12:10Z</time>
      </trkpt>
      <trkpt lat="48.20314" lon="-4.12707">
        <ele>219.32</ele>
        <time>2015-09-14T14:12:17Z</time>
      </trkpt>
      <trkpt lat="48.20312" lon="-4.12708">
        <ele>217.88</ele>
        <time>2015-09-14T14:12:19Z</time>
      </trkpt>
      <trkpt lat="48.20298" lon="-4.12713">
        <ele>219.8</ele>
        <time>2015-09-14T14:12:33Z</time>
      </trkpt>
      <trkpt lat="48.20294" lon="-4.12706">
        <ele>219.8</ele>
        <time>2015-09-14T14:12:39Z</time>
      </trkpt>
      <trkpt lat="48.20293" lon="-4.12705">
        <ele>219.8</ele>
        <time>2015-09-14T14:12:40Z</time>
      </trkpt>
      <trkpt lat="48.20292" lon="-4.12703">
        <ele>219.8</ele>
        <time>2015-09-14T14:12:42Z</time>
      </trkpt>
      <trkpt lat="48.20289" lon="-4.12695">
        <ele>221.24</ele>
        <time>2015-09-14T14:12:48Z</time>
      </trkpt>
      <trkpt lat="48.20285" lon="-4.12682">
        <ele>221.72</ele>
        <time>2015-09-14T14:12:57Z</time>
      </trkpt>
      <trkpt lat="48.20283" lon="-4.12677">
        <ele>222.68</ele>
        <time>2015-09-14T14:13:01Z</time>
      </trkpt>
      <trkpt lat="48.20278" lon="-4.12669">
        <ele>220.76</ele>
        <time>2015-09-14T14:13:13Z</time>
      </trkpt>
      <trkpt lat="48.20266" lon="-4.12673">
        <ele>219.8</ele>
        <time>2015-09-14T14:13:29Z</time>
      </trkpt>
      <trkpt lat="48.20264" lon="-4.12674">
        <ele>222.2</ele>
        <time>2015-09-14T14:13:31Z</time>
      </trkpt>
      <trkpt lat="48.2025" lon="-4.1268">
        <ele>222.68</ele>
        <time>2015-09-14T14:13:46Z</time>
      </trkpt>
      <trkpt lat="48.20244" lon="-4.12682">
        <ele>221.24</ele>
        <time>2015-09-14T14:13:52Z</time>
      </trkpt>
      <trkpt lat="48.20243" lon="-4.12683">
        <ele>223.16</ele>
        <time>2015-09-14T14:13:54Z</time>
      </trkpt>
      <trkpt lat="48.20242" lon="-4.12683">
        <ele>223.16</ele>
        <time>2015-09-14T14:13:55Z</time>
      </trkpt>
      <trkpt lat="48.20239" lon="-4.12684">
        <ele>221.72</ele>
        <time>2015-09-14T14:13:58Z</time>
      </trkpt>
      <trkpt lat="48.20235" lon="-4.12686">
        <ele>219.8</ele>
        <time>2015-09-14T14:14:02Z</time>
      </trkpt>
      <trkpt lat="48.20234" lon="-4.12687">
        <ele>221.24</ele>
        <time>2015-09-14T14:14:04Z</time>
      </trkpt>
      <trkpt lat="48.20231" lon="-4.12688">
        <ele>224.12</ele>
        <time>2015-09-14T14:14:07Z</time>
      </trkpt>
      <trkpt lat="48.20229" lon="-4.12689">
        <ele>222.68</ele>
        <time>2015-09-14T14:14:09Z</time>
      </trkpt>
      <trkpt lat="48.20226" lon="-4.1269">
        <ele>222.68</ele>
        <time>2015-09-14T14:14:13Z</time>
      </trkpt>
      <trkpt lat="48.20224" lon="-4.12691">
        <ele>224.12</ele>
        <time>2015-09-14T14:14:15Z</time>
      </trkpt>
      <trkpt lat="48.2021" lon="-4.12701">
        <ele>224.61</ele>
        <time>2015-09-14T14:14:30Z</time>
      </trkpt>
      <trkpt lat="48.20207" lon="-4.12702">
        <ele>225.57</ele>
        <time>2015-09-14T14:14:33Z</time>
      </trkpt>
      <trkpt lat="48.20193" lon="-4.12709">
        <ele>224.12</ele>
        <time>2015-09-14T14:14:47Z</time>
      </trkpt>
      <trkpt lat="48.20187" lon="-4.12711">
        <ele>223.16</ele>
        <time>2015-09-14T14:14:54Z</time>
      </trkpt>
      <trkpt lat="48.20184" lon="-4.12713">
        <ele>225.09</ele>
        <time>2015-09-14T14:14:57Z</time>
      </trkpt>
      <trkpt lat="48.20176" lon="-4.12717">
        <ele>224.12</ele>
        <time>2015-09-14T14:15:05Z</time>
      </trkpt>
      <trkpt lat="48.20174" lon="-4.12718">
        <ele>221.24</ele>
        <time>2015-09-14T14:15:07Z</time>
      </trkpt>
      <trkpt lat="48.20174" lon="-4.12718">
        <ele>222.68</ele>
        <time>2015-09-14T14:15:08Z</time>
      </trkpt>
      <trkpt lat="48.20173" lon="-4.12719">
        <ele>223.64</ele>
        <time>2015-09-14T14:15:09Z</time>
      </trkpt>
      <trkpt lat="48.20169" lon="-4.12721">
        <ele>222.2</ele>
        <time>2015-09-14T14:15:13Z</time>
      </trkpt>
      <trkpt lat="48.20163" lon="-4.12723">
        <ele>217.88</ele>
        <time>2015-09-14T14:15:18Z</time>
      </trkpt>
      <trkpt lat="48.20162" lon="-4.12723">
        <ele>217.88</ele>
        <time>2015-09-14T14:15:19Z</time>
      </trkpt>
      <trkpt lat="48.2016" lon="-4.12724">
        <ele>224.12</ele>
        <time>2015-09-14T14:15:21Z</time>
      </trkpt>
      <trkpt lat="48.2016" lon="-4.12725">
        <ele>224.12</ele>
        <time>2015-09-14T14:15:22Z</time>
      </trkpt>
      <trkpt lat="48.20159" lon="-4.12725">
        <ele>220.76</ele>
        <time>2015-09-14T14:15:23Z</time>
      </trkpt>
      <trkpt lat="48.20158" lon="-4.12726">
        <ele>222.2</ele>
        <time>2015-09-14T14:15:24Z</time>
      </trkpt>
      <trkpt lat="48.20156" lon="-4.12727">
        <ele>224.61</ele>
        <time>2015-09-14T14:15:26Z</time>
      </trkpt>
      <trkpt lat="48.20155" lon="-4.12727">
        <ele>225.57</ele>
        <time>2015-09-14T14:15:27Z</time>
      </trkpt>
      <trkpt lat="48.20151" lon="-4.12728">
        <ele>229.41</ele>
        <time>2015-09-14T14:15:32Z</time>
      </trkpt>
      <trkpt lat="48.2015" lon="-4.12728">
        <ele>223.64</ele>
        <time>2015-09-14T14:15:33Z</time>
      </trkpt>
      <trkpt lat="48.20149" lon="-4.12728">
        <ele>230.85</ele>
        <time>2015-09-14T14:15:35Z</time>
      </trkpt>
      <trkpt lat="48.20149" lon="-4.12728">
        <ele>226.05</ele>
        <time>2015-09-14T14:15:38Z</time>
      </trkpt>
      <trkpt lat="48.20149" lon="-4.12728">
        <ele>227.49</ele>
        <time>2015-09-14T14:15:39Z</time>
      </trkpt>
      <trkpt lat="48.20149" lon="-4.12727">
        <ele>231.81</ele>
        <time>2015-09-14T14:15:42Z</time>
      </trkpt>
      <trkpt lat="48.20149" lon="-4.12726">
        <ele>230.85</ele>
        <time>2015-09-14T14:15:48Z</time>
      </trkpt>
      <trkpt lat="48.20149" lon="-4.12725">
        <ele>230.37</ele>
        <time>2015-09-14T14:16:09Z</time>
      </trkpt>
      <trkpt lat="48.20149" lon="-4.12727">
        <ele>227.97</ele>
        <time>2015-09-14T14:16:15Z</time>
      </trkpt>
      <trkpt lat="48.2015" lon="-4.12727">
        <ele>228.45</ele>
        <time>2015-09-14T14:16:21Z</time>
      </trkpt>
      <trkpt lat="48.20149" lon="-4.1273">
        <ele>225.09</ele>
        <time>2015-09-14T14:16:32Z</time>
      </trkpt>
      <trkpt lat="48.20149" lon="-4.1273">
        <ele>227.49</ele>
        <time>2015-09-14T14:16:35Z</time>
      </trkpt>
      <trkpt lat="48.20149" lon="-4.1273">
        <ele>225.09</ele>
        <time>2015-09-14T14:16:37Z</time>
      </trkpt>
      <trkpt lat="48.20149" lon="-4.1273">
        <ele>226.05</ele>
        <time>2015-09-14T14:16:41Z</time>
      </trkpt>
      <trkpt lat="48.20149" lon="-4.1273">
        <ele>222.2</ele>
        <time>2015-09-14T14:16:43Z</time>
      </trkpt>
      <trkpt lat="48.20148" lon="-4.1273">
        <ele>226.05</ele>
        <time>2015-09-14T14:16:46Z</time>
      </trkpt>
      <trkpt lat="48.20148" lon="-4.1273">
        <ele>226.05</ele>
        <time>2015-09-14T14:16:47Z</time>
      </trkpt>
      <trkpt lat="48.20148" lon="-4.12729">
        <ele>229.89</ele>
        <time>2015-09-14T14:16:50Z</time>
      </trkpt>
      <trkpt lat="48.20148" lon="-4.12729">
        <ele>231.81</ele>
        <time>2015-09-14T14:16:52Z</time>
      </trkpt>
      <trkpt lat="48.20148" lon="-4.12728">
        <ele>227.97</ele>
        <time>2015-09-14T14:16:57Z</time>
      </trkpt>
      <trkpt lat="48.20148" lon="-4.12728">
        <ele>227.97</ele>
        <time>2015-09-14T14:16:58Z</time>
      </trkpt>
      <trkpt lat="48.20148" lon="-4.12728">
        <ele>226.05</ele>
        <time>2015-09-14T14:17:00Z</time>
      </trkpt>
      <trkpt lat="48.20148" lon="-4.12728">
        <ele>231.81</ele>
        <time>2015-09-14T14:17:01Z</time>
      </trkpt>
      <trkpt lat="48.20148" lon="-4.12728">
        <ele>231.81</ele>
        <time>2015-09-14T14:17:02Z</time>
      </trkpt>
      <trkpt lat="48.20147" lon="-4.12728">
        <ele>228.93</ele>
        <time>2015-09-14T14:17:10Z</time>
      </trkpt>
      <trkpt lat="48.20147" lon="-4.12728">
        <ele>229.41</ele>
        <time>2015-09-14T14:17:11Z</time>
      </trkpt>
      <trkpt lat="48.20147" lon="-4.12728">
        <ele>231.81</ele>
        <time>2015-09-14T14:17:15Z</time>
      </trkpt>
      <trkpt lat="48.20147" lon="-4.12729">
        <ele>230.37</ele>
        <time>2015-09-14T14:17:18Z</time>
      </trkpt>
      <trkpt lat="48.20147" lon="-4.12729">
        <ele>231.81</ele>
        <time>2015-09-14T14:17:20Z</time>
      </trkpt>
      <trkpt lat="48.20147" lon="-4.12729">
        <ele>229.89</ele>
        <time>2015-09-14T14:17:22Z</time>
      </trkpt>
      <trkpt lat="48.20147" lon="-4.12729">
        <ele>232.3</ele>
        <time>2015-09-14T14:17:27Z</time>
      </trkpt>
      <trkpt lat="48.20146" lon="-4.12729">
        <ele>227.97</ele>
        <time>2015-09-14T14:17:39Z</time>
      </trkpt>
      <trkpt lat="48.20144" lon="-4.12729">
        <ele>226.53</ele>
        <time>2015-09-14T14:17:41Z</time>
      </trkpt>
      <trkpt lat="48.20139" lon="-4.12729">
        <ele>222.2</ele>
        <time>2015-09-14T14:17:48Z</time>
      </trkpt>
      <trkpt lat="48.20138" lon="-4.1273">
        <ele>223.64</ele>
        <time>2015-09-14T14:17:49Z</time>
      </trkpt>
      <trkpt lat="48.20135" lon="-4.12731">
        <ele>220.76</ele>
        <time>2015-09-14T14:17:53Z</time>
      </trkpt>
      <trkpt lat="48.20135" lon="-4.12732">
        <ele>221.72</ele>
        <time>2015-09-14T14:17:54Z</time>
      </trkpt>
      <trkpt lat="48.20133" lon="-4.12734">
        <ele>230.85</ele>
        <time>2015-09-14T14:17:56Z</time>
      </trkpt>
      <trkpt lat="48.20131" lon="-4.12736">
        <ele>231.33</ele>
        <time>2015-09-14T14:17:58Z</time>
      </trkpt>
      <trkpt lat="48.20126" lon="-4.12739">
        <ele>224.12</ele>
        <time>2015-09-14T14:18:04Z</time>
      </trkpt>
      <trkpt lat="48.20126" lon="-4.12739">
        <ele>227.01</ele>
        <time>2015-09-14T14:18:05Z</time>
      </trkpt>
      <trkpt lat="48.20126" lon="-4.12738">
        <ele>229.41</ele>
        <time>2015-09-14T14:18:07Z</time>
      </trkpt>
      <trkpt lat="48.20123" lon="-4.1274">
        <ele>226.05</ele>
        <time>2015-09-14T14:18:11Z</time>
      </trkpt>
      <trkpt lat="48.20119" lon="-4.12742">
        <ele>228.93</ele>
        <time>2015-09-14T14:18:15Z</time>
      </trkpt>
      <trkpt lat="48.20118" lon="-4.12743">
        <ele>224.61</ele>
        <time>2015-09-14T14:18:16Z</time>
      </trkpt>
      <trkpt lat="48.20117" lon="-4.12744">
        <ele>224.61</ele>
        <time>2015-09-14T14:18:17Z</time>
      </trkpt>
      <trkpt lat="48.20116" lon="-4.12744">
        <ele>229.89</ele>
        <time>2015-09-14T14:18:18Z</time>
      </trkpt>
      <trkpt lat="48.20115" lon="-4.12745">
        <ele>230.85</ele>
        <time>2015-09-14T14:18:19Z</time>
      </trkpt>
      <trkpt lat="48.20113" lon="-4.12746">
        <ele>225.09</ele>
        <time>2015-09-14T14:18:21Z</time>
      </trkpt>
      <trkpt lat="48.2011" lon="-4.12746">
        <ele>222.2</ele>
        <time>2015-09-14T14:18:24Z</time>
      </trkpt>
      <trkpt lat="48.20097" lon="-4.12754">
        <ele>222.68</ele>
        <time>2015-09-14T14:18:35Z</time>
      </trkpt>
      <trkpt lat="48.20095" lon="-4.12754">
        <ele>230.37</ele>
        <time>2015-09-14T14:18:37Z</time>
      </trkpt>
      <trkpt lat="48.20094" lon="-4.12755">
        <ele>230.37</ele>
        <time>2015-09-14T14:18:38Z</time>
      </trkpt>
      <trkpt lat="48.20092" lon="-4.12755">
        <ele>231.33</ele>
        <time>2015-09-14T14:18:40Z</time>
      </trkpt>
      <trkpt lat="48.2009" lon="-4.12756">
        <ele>220.28</ele>
        <time>2015-09-14T14:18:42Z</time>
      </trkpt>
      <trkpt lat="48.20089" lon="-4.12756">
        <ele>222.68</ele>
        <time>2015-09-14T14:18:43Z</time>
      </trkpt>
      <trkpt lat="48.20087" lon="-4.12757">
        <ele>223.64</ele>
        <time>2015-09-14T14:18:45Z</time>
      </trkpt>
      <trkpt lat="48.20084" lon="-4.12758">
        <ele>226.53</ele>
        <time>2015-09-14T14:18:47Z</time>
      </trkpt>
      <trkpt lat="48.20078" lon="-4.12762">
        <ele>221.24</ele>
        <time>2015-09-14T14:18:53Z</time>
      </trkpt>
      <trkpt lat="48.20077" lon="-4.12762">
        <ele>223.64</ele>
        <time>2015-09-14T14:18:54Z</time>
      </trkpt>
      <trkpt lat="48.20065" lon="-4.12769">
        <ele>223.16</ele>
        <time>2015-09-14T14:19:03Z</time>
      </trkpt>
      <trkpt lat="48.20062" lon="-4.12772">
        <ele>219.32</ele>
        <time>2015-09-14T14:19:06Z</time>
      </trkpt>
      <trkpt lat="48.20061" lon="-4.12772">
        <ele>219.32</ele>
        <time>2015-09-14T14:19:07Z</time>
      </trkpt>
      <trkpt lat="48.20058" lon="-4.12774">
        <ele>222.68</ele>
        <time>2015-09-14T14:19:10Z</time>
      </trkpt>
      <trkpt lat="48.20056" lon="-4.12775">
        <ele>223.16</ele>
        <time>2015-09-14T14:19:11Z</time>
      </trkpt>
      <trkpt lat="48.20052" lon="-4.12777">
        <ele>226.05</ele>
        <time>2015-09-14T14:19:14Z</time>
      </trkpt>
      <trkpt lat="48.20051" lon="-4.12778">
        <ele>225.57</ele>
        <time>2015-09-14T14:19:15Z</time>
      </trkpt>
      <trkpt lat="48.20049" lon="-4.12779">
        <ele>224.12</ele>
        <time>2015-09-14T14:19:17Z</time>
      </trkpt>
      <trkpt lat="48.20043" lon="-4.12781">
        <ele>223.64</ele>
        <time>2015-09-14T14:19:22Z</time>
      </trkpt>
      <trkpt lat="48.20037" lon="-4.12783">
        <ele>221.72</ele>
        <time>2015-09-14T14:19:27Z</time>
      </trkpt>
      <trkpt lat="48.20029" lon="-4.12788">
        <ele>224.12</ele>
        <time>2015-09-14T14:19:34Z</time>
      </trkpt>
      <trkpt lat="48.20025" lon="-4.12789">
        <ele>218.84</ele>
        <time>2015-09-14T14:19:37Z</time>
      </trkpt>
      <trkpt lat="48.20024" lon="-4.1279">
        <ele>221.72</ele>
        <time>2015-09-14T14:19:38Z</time>
      </trkpt>
      <trkpt lat="48.20022" lon="-4.12791">
        <ele>218.84</ele>
        <time>2015-09-14T14:19:40Z</time>
      </trkpt>
      <trkpt lat="48.20018" lon="-4.12791">
        <ele>223.16</ele>
        <time>2015-09-14T14:19:44Z</time>
      </trkpt>
      <trkpt lat="48.20016" lon="-4.12791">
        <ele>225.09</ele>
        <time>2015-09-14T14:19:47Z</time>
      </trkpt>
      <trkpt lat="48.20013" lon="-4.12788">
        <ele>226.53</ele>
        <time>2015-09-14T14:19:57Z</time>
      </trkpt>
      <trkpt lat="48.20014" lon="-4.12787">
        <ele>226.53</ele>
        <time>2015-09-14T14:20:19Z</time>
      </trkpt>
      <trkpt lat="48.20012" lon="-4.12784">
        <ele>226.05</ele>
        <time>2015-09-14T14:20:38Z</time>
      </trkpt>
      <trkpt lat="48.2001" lon="-4.12778">
        <ele>226.05</ele>
        <time>2015-09-14T14:20:42Z</time>
      </trkpt>
      <trkpt lat="48.2001" lon="-4.12766">
        <ele>227.49</ele>
        <time>2015-09-14T14:20:50Z</time>
      </trkpt>
      <trkpt lat="48.2001" lon="-4.12741">
        <ele>228.45</ele>
        <time>2015-09-14T14:21:06Z</time>
      </trkpt>
      <trkpt lat="48.20009" lon="-4.1273">
        <ele>231.33</ele>
        <time>2015-09-14T14:21:14Z</time>
      </trkpt>
      <trkpt lat="48.20009" lon="-4.1273">
        <ele>231.33</ele>
        <time>2015-09-14T14:21:15Z</time>
      </trkpt>
      <trkpt lat="48.2001" lon="-4.12714">
        <ele>232.78</ele>
        <time>2015-09-14T14:21:30Z</time>
      </trkpt>
      <trkpt lat="48.20012" lon="-4.12682">
        <ele>236.14</ele>
        <time>2015-09-14T14:21:47Z</time>
      </trkpt>
      <trkpt lat="48.20012" lon="-4.12681">
        <ele>236.14</ele>
        <time>2015-09-14T14:21:48Z</time>
      </trkpt>
      <trkpt lat="48.20015" lon="-4.12675">
        <ele>237.58</ele>
        <time>2015-09-14T14:22:01Z</time>
      </trkpt>
      <trkpt lat="48.20015" lon="-4.12675">
        <ele>237.58</ele>
        <time>2015-09-14T14:22:02Z</time>
      </trkpt>
      <trkpt lat="48.20015" lon="-4.12675">
        <ele>236.14</ele>
        <time>2015-09-14T14:22:05Z</time>
      </trkpt>
      <trkpt lat="48.20015" lon="-4.12674">
        <ele>237.1</ele>
        <time>2015-09-14T14:22:13Z</time>
      </trkpt>
      <trkpt lat="48.20016" lon="-4.12671">
        <ele>237.58</ele>
        <time>2015-09-14T14:22:26Z</time>
      </trkpt>
      <trkpt lat="48.20018" lon="-4.12673">
        <ele>235.18</ele>
        <time>2015-09-14T14:22:41Z</time>
      </trkpt>
      <trkpt lat="48.20019" lon="-4.12672">
        <ele>236.62</ele>
        <time>2015-09-14T14:22:46Z</time>
      </trkpt>
      <trkpt lat="48.20019" lon="-4.12672">
        <ele>235.66</ele>
        <time>2015-09-14T14:22:51Z</time>
      </trkpt>
      <trkpt lat="48.20021" lon="-4.12672">
        <ele>235.66</ele>
        <time>2015-09-14T14:23:05Z</time>
      </trkpt>
      <trkpt lat="48.20022" lon="-4.12671">
        <ele>235.66</ele>
        <time>2015-09-14T14:23:17Z</time>
      </trkpt>
      <trkpt lat="48.20025" lon="-4.12669">
        <ele>235.66</ele>
        <time>2015-09-14T14:23:33Z</time>
      </trkpt>
      <trkpt lat="48.20028" lon="-4.12667">
        <ele>234.22</ele>
        <time>2015-09-14T14:23:46Z</time>
      </trkpt>
      <trkpt lat="48.2003" lon="-4.12659">
        <ele>235.18</ele>
        <time>2015-09-14T14:23:55Z</time>
      </trkpt>
      <trkpt lat="48.20032" lon="-4.12658">
        <ele>236.62</ele>
        <time>2015-09-14T14:23:59Z</time>
      </trkpt>
      <trkpt lat="48.20032" lon="-4.12657">
        <ele>235.66</ele>
        <time>2015-09-14T14:24:11Z</time>
      </trkpt>
      <trkpt lat="48.20033" lon="-4.12657">
        <ele>237.1</ele>
        <time>2015-09-14T14:24:18Z</time>
      </trkpt>
      <trkpt lat="48.20037" lon="-4.12654">
        <ele>233.74</ele>
        <time>2015-09-14T14:24:22Z</time>
      </trkpt>
      <trkpt lat="48.20053" lon="-4.12644">
        <ele>235.66</ele>
        <time>2015-09-14T14:24:37Z</time>
      </trkpt>
      <trkpt lat="48.20057" lon="-4.12633">
        <ele>238.06</ele>
        <time>2015-09-14T14:24:48Z</time>
      </trkpt>
      <trkpt lat="48.20052" lon="-4.12626">
        <ele>238.54</ele>
        <time>2015-09-14T14:24:56Z</time>
      </trkpt>
      <trkpt lat="48.20051" lon="-4.12619">
        <ele>238.06</ele>
        <time>2015-09-14T14:25:09Z</time>
      </trkpt>
      <trkpt lat="48.20051" lon="-4.12618">
        <ele>239.02</ele>
        <time>2015-09-14T14:25:13Z</time>
      </trkpt>
      <trkpt lat="48.2005" lon="-4.12617">
        <ele>237.58</ele>
        <time>2015-09-14T14:25:33Z</time>
      </trkpt>
      <trkpt lat="48.2005" lon="-4.12616">
        <ele>239.02</ele>
        <time>2015-09-14T14:25:36Z</time>
      </trkpt>
      <trkpt lat="48.20052" lon="-4.12617">
        <ele>239.51</ele>
        <time>2015-09-14T14:25:48Z</time>
      </trkpt>
      <trkpt lat="48.20053" lon="-4.12616">
        <ele>238.54</ele>
        <time>2015-09-14T14:26:01Z</time>
      </trkpt>
      <trkpt lat="48.20053" lon="-4.12618">
        <ele>238.54</ele>
        <time>2015-09-14T14:26:11Z</time>
      </trkpt>
      <trkpt lat="48.20053" lon="-4.12619">
        <ele>238.06</ele>
        <time>2015-09-14T14:26:18Z</time>
      </trkpt>
      <trkpt lat="48.20048" lon="-4.1262">
        <ele>239.02</ele>
        <time>2015-09-14T14:26:34Z</time>
      </trkpt>
      <trkpt lat="48.20047" lon="-4.12619">
        <ele>239.02</ele>
        <time>2015-09-14T14:26:38Z</time>
      </trkpt>
      <trkpt lat="48.20045" lon="-4.12618">
        <ele>237.1</ele>
        <time>2015-09-14T14:26:40Z</time>
      </trkpt>
      <trkpt lat="48.20041" lon="-4.12614">
        <ele>238.54</ele>
        <time>2015-09-14T14:26:45Z</time>
      </trkpt>
      <trkpt lat="48.20041" lon="-4.12613">
        <ele>237.1</ele>
        <time>2015-09-14T14:26:46Z</time>
      </trkpt>
      <trkpt lat="48.20039" lon="-4.12614">
        <ele>237.58</ele>
        <time>2015-09-14T14:26:48Z</time>
      </trkpt>
      <trkpt lat="48.20037" lon="-4.12613">
        <ele>239.02</ele>
        <time>2015-09-14T14:26:50Z</time>
      </trkpt>
      <trkpt lat="48.20036" lon="-4.12612">
        <ele>237.58</ele>
        <time>2015-09-14T14:26:52Z</time>
      </trkpt>
      <trkpt lat="48.20038" lon="-4.12615">
        <ele>239.51</ele>
        <time>2015-09-14T14:27:08Z</time>
      </trkpt>
      <trkpt lat="48.20036" lon="-4.12616">
        <ele>238.06</ele>
        <time>2015-09-14T14:27:10Z</time>
      </trkpt>
      <trkpt lat="48.20034" lon="-4.12621">
        <ele>237.58</ele>
        <time>2015-09-14T14:27:24Z</time>
      </trkpt>
      <trkpt lat="48.20033" lon="-4.12622">
        <ele>239.02</ele>
        <time>2015-09-14T14:27:26Z</time>
      </trkpt>
      <trkpt lat="48.20035" lon="-4.12618">
        <ele>237.58</ele>
        <time>2015-09-14T14:27:36Z</time>
      </trkpt>
      <trkpt lat="48.20045" lon="-4.12596">
        <ele>239.51</ele>
        <time>2015-09-14T14:27:52Z</time>
      </trkpt>
      <trkpt lat="48.20046" lon="-4.12589">
        <ele>241.43</ele>
        <time>2015-09-14T14:27:59Z</time>
      </trkpt>
      <trkpt lat="48.20047" lon="-4.12583">
        <ele>241.43</ele>
        <time>2015-09-14T14:28:05Z</time>
      </trkpt>
      <trkpt lat="48.20045" lon="-4.12579">
        <ele>239.51</ele>
        <time>2015-09-14T14:28:08Z</time>
      </trkpt>
      <trkpt lat="48.20031" lon="-4.12556">
        <ele>240.95</ele>
        <time>2015-09-14T14:28:25Z</time>
      </trkpt>
      <trkpt lat="48.20018" lon="-4.1253">
        <ele>240.95</ele>
        <time>2015-09-14T14:28:41Z</time>
      </trkpt>
      <trkpt lat="48.20003" lon="-4.12515">
        <ele>240.95</ele>
        <time>2015-09-14T14:28:59Z</time>
      </trkpt>
      <trkpt lat="48.20003" lon="-4.12511">
        <ele>240.95</ele>
        <time>2015-09-14T14:29:11Z</time>
      </trkpt>
      <trkpt lat="48.20003" lon="-4.12509">
        <ele>242.87</ele>
        <time>2015-09-14T14:29:13Z</time>
      </trkpt>
      <trkpt lat="48.20003" lon="-4.12507">
        <ele>241.43</ele>
        <time>2015-09-14T14:29:15Z</time>
      </trkpt>
      <trkpt lat="48.20002" lon="-4.12499">
        <ele>240.95</ele>
        <time>2015-09-14T14:29:21Z</time>
      </trkpt>
      <trkpt lat="48.20001" lon="-4.12473">
        <ele>239.02</ele>
        <time>2015-09-14T14:29:39Z</time>
      </trkpt>
      <trkpt lat="48.20001" lon="-4.12445">
        <ele>238.54</ele>
        <time>2015-09-14T14:29:56Z</time>
      </trkpt>
      <trkpt lat="48.20002" lon="-4.12443">
        <ele>239.02</ele>
        <time>2015-09-14T14:30:01Z</time>
      </trkpt>
      <trkpt lat="48.20002" lon="-4.12444">
        <ele>238.06</ele>
        <time>2015-09-14T14:30:13Z</time>
      </trkpt>
      <trkpt lat="48.20003" lon="-4.1246">
        <ele>239.02</ele>
        <time>2015-09-14T14:30:25Z</time>
      </trkpt>
      <trkpt lat="48.20004" lon="-4.12467">
        <ele>238.54</ele>
        <time>2015-09-14T14:30:31Z</time>
      </trkpt>
      <trkpt lat="48.20004" lon="-4.12474">
        <ele>239.99</ele>
        <time>2015-09-14T14:30:35Z</time>
      </trkpt>
      <trkpt lat="48.20009" lon="-4.12512">
        <ele>240.47</ele>
        <time>2015-09-14T14:30:55Z</time>
      </trkpt>
      <trkpt lat="48.20024" lon="-4.12533">
        <ele>240.47</ele>
        <time>2015-09-14T14:31:11Z</time>
      </trkpt>
      <trkpt lat="48.20028" lon="-4.12542">
        <ele>239.99</ele>
        <time>2015-09-14T14:31:17Z</time>
      </trkpt>
      <trkpt lat="48.2003" lon="-4.12546">
        <ele>241.43</ele>
        <time>2015-09-14T14:31:20Z</time>
      </trkpt>
      <trkpt lat="48.20042" lon="-4.12563">
        <ele>239.99</ele>
        <time>2015-09-14T14:31:32Z</time>
      </trkpt>
      <trkpt lat="48.20047" lon="-4.12568">
        <ele>238.06</ele>
        <time>2015-09-14T14:31:37Z</time>
      </trkpt>
      <trkpt lat="48.20049" lon="-4.12569">
        <ele>239.02</ele>
        <time>2015-09-14T14:31:39Z</time>
      </trkpt>
      <trkpt lat="48.20052" lon="-4.12572">
        <ele>240.95</ele>
        <time>2015-09-14T14:31:43Z</time>
      </trkpt>
      <trkpt lat="48.20053" lon="-4.12571">
        <ele>239.51</ele>
        <time>2015-09-14T14:31:49Z</time>
      </trkpt>
      <trkpt lat="48.20055" lon="-4.12572">
        <ele>239.02</ele>
        <time>2015-09-14T14:31:55Z</time>
      </trkpt>
      <trkpt lat="48.20071" lon="-4.12556">
        <ele>238.06</ele>
        <time>2015-09-14T14:32:14Z</time>
      </trkpt>
      <trkpt lat="48.20084" lon="-4.12542">
        <ele>237.1</ele>
        <time>2015-09-14T14:32:27Z</time>
      </trkpt>
      <trkpt lat="48.20097" lon="-4.12528">
        <ele>235.18</ele>
        <time>2015-09-14T14:32:40Z</time>
      </trkpt>
      <trkpt lat="48.20112" lon="-4.12512">
        <ele>234.22</ele>
        <time>2015-09-14T14:32:57Z</time>
      </trkpt>
      <trkpt lat="48.20117" lon="-4.12506">
        <ele>233.74</ele>
        <time>2015-09-14T14:33:02Z</time>
      </trkpt>
      <trkpt lat="48.20134" lon="-4.12487">
        <ele>230.85</ele>
        <time>2015-09-14T14:33:20Z</time>
      </trkpt>
      <trkpt lat="48.20134" lon="-4.12488">
        <ele>232.78</ele>
        <time>2015-09-14T14:33:29Z</time>
      </trkpt>
      <trkpt lat="48.20135" lon="-4.12487">
        <ele>231.33</ele>
        <time>2015-09-14T14:33:32Z</time>
      </trkpt>
      <trkpt lat="48.20145" lon="-4.12472">
        <ele>228.45</ele>
        <time>2015-09-14T14:33:47Z</time>
      </trkpt>
      <trkpt lat="48.20148" lon="-4.12467">
        <ele>227.49</ele>
        <time>2015-09-14T14:33:51Z</time>
      </trkpt>
      <trkpt lat="48.20146" lon="-4.12452">
        <ele>226.05</ele>
        <time>2015-09-14T14:34:07Z</time>
      </trkpt>
      <trkpt lat="48.20144" lon="-4.12448">
        <ele>225.09</ele>
        <time>2015-09-14T14:34:12Z</time>
      </trkpt>
      <trkpt lat="48.20134" lon="-4.12436">
        <ele>226.53</ele>
        <time>2015-09-14T14:34:29Z</time>
      </trkpt>
      <trkpt lat="48.20122" lon="-4.12422">
        <ele>227.01</ele>
        <time>2015-09-14T14:34:43Z</time>
      </trkpt>
      <trkpt lat="48.2011" lon="-4.12409">
        <ele>227.97</ele>
        <time>2015-09-14T14:34:59Z</time>
      </trkpt>
      <trkpt lat="48.20108" lon="-4.12406">
        <ele>228.45</ele>
        <time>2015-09-14T14:35:14Z</time>
      </trkpt>
      <trkpt lat="48.20108" lon="-4.12405">
        <ele>227.49</ele>
        <time>2015-09-14T14:35:36Z</time>
      </trkpt>
      <trkpt lat="48.20107" lon="-4.12405">
        <ele>228.45</ele>
        <time>2015-09-14T14:35:38Z</time>
      </trkpt>
      <trkpt lat="48.20109" lon="-4.12405">
        <ele>228.45</ele>
        <time>2015-09-14T14:35:58Z</time>
      </trkpt>
      <trkpt lat="48.20108" lon="-4.12405">
        <ele>227.01</ele>
        <time>2015-09-14T14:36:01Z</time>
      </trkpt>
      <trkpt lat="48.20108" lon="-4.12405">
        <ele>227.97</ele>
        <time>2015-09-14T14:36:19Z</time>
      </trkpt>
      <trkpt lat="48.20108" lon="-4.12407">
        <ele>227.97</ele>
        <time>2015-09-14T14:36:37Z</time>
      </trkpt>
      <trkpt lat="48.20108" lon="-4.12406">
        <ele>228.93</ele>
        <time>2015-09-14T14:36:57Z</time>
      </trkpt>
      <trkpt lat="48.20109" lon="-4.12405">
        <ele>227.49</ele>
        <time>2015-09-14T14:37:15Z</time>
      </trkpt>
      <trkpt lat="48.2011" lon="-4.12405">
        <ele>227.01</ele>
        <time>2015-09-14T14:37:31Z</time>
      </trkpt>
      <trkpt lat="48.2011" lon="-4.12405">
        <ele>228.45</ele>
        <time>2015-09-14T14:37:40Z</time>
      </trkpt>
      <trkpt lat="48.20111" lon="-4.12404">
        <ele>227.01</ele>
        <time>2015-09-14T14:37:55Z</time>
      </trkpt>
      <trkpt lat="48.2011" lon="-4.12404">
        <ele>228.45</ele>
        <time>2015-09-14T14:38:01Z</time>
      </trkpt>
      <trkpt lat="48.2011" lon="-4.12404">
        <ele>227.01</ele>
        <time>2015-09-14T14:38:03Z</time>
      </trkpt>
      <trkpt lat="48.2011" lon="-4.12404">
        <ele>228.45</ele>
        <time>2015-09-14T14:38:05Z</time>
      </trkpt>
      <trkpt lat="48.20106" lon="-4.12403">
        <ele>228.45</ele>
        <time>2015-09-14T14:38:21Z</time>
      </trkpt>
      <trkpt lat="48.20106" lon="-4.12403">
        <ele>227.01</ele>
        <time>2015-09-14T14:38:29Z</time>
      </trkpt>
      <trkpt lat="48.20104" lon="-4.12403">
        <ele>227.49</ele>
        <time>2015-09-14T14:38:42Z</time>
      </trkpt>
      <trkpt lat="48.20104" lon="-4.12403">
        <ele>227.49</ele>
        <time>2015-09-14T14:38:49Z</time>
      </trkpt>
      <trkpt lat="48.20103" lon="-4.12403">
        <ele>226.53</ele>
        <time>2015-09-14T14:39:18Z</time>
      </trkpt>
      <trkpt lat="48.20105" lon="-4.12404">
        <ele>227.97</ele>
        <time>2015-09-14T14:39:43Z</time>
      </trkpt>
      <trkpt lat="48.20105" lon="-4.12403">
        <ele>226.53</ele>
        <time>2015-09-14T14:40:19Z</time>
      </trkpt>
      <trkpt lat="48.20105" lon="-4.12403">
        <ele>226.53</ele>
        <time>2015-09-14T14:40:45Z</time>
      </trkpt>
      <trkpt lat="48.20104" lon="-4.12403">
        <ele>226.53</ele>
        <time>2015-09-14T14:41:14Z</time>
      </trkpt>
      <trkpt lat="48.20105" lon="-4.12405">
        <ele>226.05</ele>
        <time>2015-09-14T14:41:43Z</time>
      </trkpt>
      <trkpt lat="48.20105" lon="-4.12404">
        <ele>225.57</ele>
        <time>2015-09-14T14:42:10Z</time>
      </trkpt>
      <trkpt lat="48.20105" lon="-4.12404">
        <ele>225.09</ele>
        <time>2015-09-14T14:42:40Z</time>
      </trkpt>
      <trkpt lat="48.20106" lon="-4.12405">
        <ele>225.09</ele>
        <time>2015-09-14T14:43:13Z</time>
      </trkpt>
      <trkpt lat="48.20106" lon="-4.12405">
        <ele>225.09</ele>
        <time>2015-09-14T14:43:34Z</time>
      </trkpt>
      <trkpt lat="48.20106" lon="-4.12404">
        <ele>224.61</ele>
        <time>2015-09-14T14:44:01Z</time>
      </trkpt>
      <trkpt lat="48.20105" lon="-4.12404">
        <ele>224.61</ele>
        <time>2015-09-14T14:44:34Z</time>
      </trkpt>
      <trkpt lat="48.20104" lon="-4.12403">
        <ele>226.05</ele>
        <time>2015-09-14T14:44:43Z</time>
      </trkpt>
      <trkpt lat="48.201" lon="-4.12399">
        <ele>226.53</ele>
        <time>2015-09-14T14:44:58Z</time>
      </trkpt>
      <trkpt lat="48.20092" lon="-4.12393">
        <ele>227.97</ele>
        <time>2015-09-14T14:45:08Z</time>
      </trkpt>
      <trkpt lat="48.2008" lon="-4.12381">
        <ele>226.05</ele>
        <time>2015-09-14T14:45:24Z</time>
      </trkpt>
      <trkpt lat="48.20066" lon="-4.12363">
        <ele>227.01</ele>
        <time>2015-09-14T14:45:41Z</time>
      </trkpt>
      <trkpt lat="48.20046" lon="-4.12342">
        <ele>226.05</ele>
        <time>2015-09-14T14:46:02Z</time>
      </trkpt>
      <trkpt lat="48.20035" lon="-4.12327">
        <ele>224.61</ele>
        <time>2015-09-14T14:46:18Z</time>
      </trkpt>
      <trkpt lat="48.20033" lon="-4.12324">
        <ele>224.61</ele>
        <time>2015-09-14T14:46:20Z</time>
      </trkpt>
      <trkpt lat="48.20032" lon="-4.12313">
        <ele>224.61</ele>
        <time>2015-09-14T14:46:26Z</time>
      </trkpt>
      <trkpt lat="48.20033" lon="-4.1231">
        <ele>223.16</ele>
        <time>2015-09-14T14:46:28Z</time>
      </trkpt>
      <trkpt lat="48.20041" lon="-4.12292">
        <ele>219.8</ele>
        <time>2015-09-14T14:46:42Z</time>
      </trkpt>
      <trkpt lat="48.20048" lon="-4.12274">
        <ele>217.4</ele>
        <time>2015-09-14T14:46:56Z</time>
      </trkpt>
      <trkpt lat="48.20055" lon="-4.12255">
        <ele>214.03</ele>
        <time>2015-09-14T14:47:08Z</time>
      </trkpt>
      <trkpt lat="48.20062" lon="-4.12234">
        <ele>211.15</ele>
        <time>2015-09-14T14:47:21Z</time>
      </trkpt>
      <trkpt lat="48.20068" lon="-4.12219">
        <ele>207.78</ele>
        <time>2015-09-14T14:47:34Z</time>
      </trkpt>
      <trkpt lat="48.20078" lon="-4.12199">
        <ele>204.42</ele>
        <time>2015-09-14T14:47:49Z</time>
      </trkpt>
      <trkpt lat="48.20086" lon="-4.12182">
        <ele>202.01</ele>
        <time>2015-09-14T14:48:06Z</time>
      </trkpt>
      <trkpt lat="48.20093" lon="-4.12162">
        <ele>198.65</ele>
        <time>2015-09-14T14:48:19Z</time>
      </trkpt>
      <trkpt lat="48.20102" lon="-4.12144">
        <ele>195.77</ele>
        <time>2015-09-14T14:48:35Z</time>
      </trkpt>
      <trkpt lat="48.20106" lon="-4.12126">
        <ele>193.36</ele>
        <time>2015-09-14T14:48:51Z</time>
      </trkpt>
      <trkpt lat="48.20105" lon="-4.12125">
        <ele>193.36</ele>
        <time>2015-09-14T14:48:57Z</time>
      </trkpt>
      <trkpt lat="48.20088" lon="-4.12116">
        <ele>192.4</ele>
        <time>2015-09-14T14:49:13Z</time>
      </trkpt>
      <trkpt lat="48.20081" lon="-4.1211">
        <ele>193.36</ele>
        <time>2015-09-14T14:49:20Z</time>
      </trkpt>
      <trkpt lat="48.20065" lon="-4.12095">
        <ele>192.4</ele>
        <time>2015-09-14T14:49:37Z</time>
      </trkpt>
      <trkpt lat="48.20057" lon="-4.12085">
        <ele>193.36</ele>
        <time>2015-09-14T14:49:46Z</time>
      </trkpt>
      <trkpt lat="48.20049" lon="-4.12076">
        <ele>192.4</ele>
        <time>2015-09-14T14:49:54Z</time>
      </trkpt>
      <trkpt lat="48.20045" lon="-4.1207">
        <ele>192.88</ele>
        <time>2015-09-14T14:49:59Z</time>
      </trkpt>
      <trkpt lat="48.20039" lon="-4.12065">
        <ele>191.92</ele>
        <time>2015-09-14T14:50:05Z</time>
      </trkpt>
      <trkpt lat="48.20025" lon="-4.12048">
        <ele>192.88</ele>
        <time>2015-09-14T14:50:22Z</time>
      </trkpt>
      <trkpt lat="48.2002" lon="-4.12041">
        <ele>190</ele>
        <time>2015-09-14T14:50:29Z</time>
      </trkpt>
      <trkpt lat="48.20017" lon="-4.12038">
        <ele>191.92</ele>
        <time>2015-09-14T14:50:32Z</time>
      </trkpt>
      <trkpt lat="48.20004" lon="-4.12026">
        <ele>192.88</ele>
        <time>2015-09-14T14:50:46Z</time>
      </trkpt>
      <trkpt lat="48.20002" lon="-4.12019">
        <ele>190.48</ele>
        <time>2015-09-14T14:50:50Z</time>
      </trkpt>
      <trkpt lat="48.20002" lon="-4.12018">
        <ele>190.48</ele>
        <time>2015-09-14T14:50:51Z</time>
      </trkpt>
      <trkpt lat="48.20002" lon="-4.12015">
        <ele>190.48</ele>
        <time>2015-09-14T14:50:53Z</time>
      </trkpt>
      <trkpt lat="48.2" lon="-4.11999">
        <ele>189.04</ele>
        <time>2015-09-14T14:51:04Z</time>
      </trkpt>
      <trkpt lat="48.19987" lon="-4.11998">
        <ele>190.48</ele>
        <time>2015-09-14T14:51:20Z</time>
      </trkpt>
      <trkpt lat="48.19982" lon="-4.11997">
        <ele>190</ele>
        <time>2015-09-14T14:51:24Z</time>
      </trkpt>
      <trkpt lat="48.19973" lon="-4.11994">
        <ele>191.44</ele>
        <time>2015-09-14T14:51:32Z</time>
      </trkpt>
      <trkpt lat="48.19964" lon="-4.11989">
        <ele>191.44</ele>
        <time>2015-09-14T14:51:43Z</time>
      </trkpt>
      <trkpt lat="48.19941" lon="-4.11978">
        <ele>192.4</ele>
        <time>2015-09-14T14:52:03Z</time>
      </trkpt>
      <trkpt lat="48.1992" lon="-4.11968">
        <ele>192.4</ele>
        <time>2015-09-14T14:52:20Z</time>
      </trkpt>
      <trkpt lat="48.19908" lon="-4.11963">
        <ele>190.96</ele>
        <time>2015-09-14T14:52:30Z</time>
      </trkpt>
      <trkpt lat="48.19885" lon="-4.11957">
        <ele>190.96</ele>
        <time>2015-09-14T14:52:50Z</time>
      </trkpt>
      <trkpt lat="48.19869" lon="-4.11958">
        <ele>190.48</ele>
        <time>2015-09-14T14:53:05Z</time>
      </trkpt>
      <trkpt lat="48.19868" lon="-4.11958">
        <ele>190.48</ele>
        <time>2015-09-14T14:53:06Z</time>
      </trkpt>
      <trkpt lat="48.19848" lon="-4.11959">
        <ele>191.92</ele>
        <time>2015-09-14T14:53:22Z</time>
      </trkpt>
      <trkpt lat="48.19841" lon="-4.11963">
        <ele>190.48</ele>
        <time>2015-09-14T14:53:29Z</time>
      </trkpt>
      <trkpt lat="48.19836" lon="-4.11966">
        <ele>191.92</ele>
        <time>2015-09-14T14:53:34Z</time>
      </trkpt>
      <trkpt lat="48.19822" lon="-4.11976">
        <ele>192.88</ele>
        <time>2015-09-14T14:53:49Z</time>
      </trkpt>
      <trkpt lat="48.19802" lon="-4.11993">
        <ele>193.36</ele>
        <time>2015-09-14T14:54:06Z</time>
      </trkpt>
      <trkpt lat="48.19789" lon="-4.12002">
        <ele>193.36</ele>
        <time>2015-09-14T14:54:22Z</time>
      </trkpt>
      <trkpt lat="48.19784" lon="-4.12008">
        <ele>191.92</ele>
        <time>2015-09-14T14:54:28Z</time>
      </trkpt>
      <trkpt lat="48.19782" lon="-4.1201">
        <ele>191.92</ele>
        <time>2015-09-14T14:54:46Z</time>
      </trkpt>
      <trkpt lat="48.19781" lon="-4.12011">
        <ele>192.4</ele>
        <time>2015-09-14T14:55:12Z</time>
      </trkpt>
      <trkpt lat="48.19778" lon="-4.12017">
        <ele>192.88</ele>
        <time>2015-09-14T14:55:35Z</time>
      </trkpt>
      <trkpt lat="48.19777" lon="-4.12019">
        <ele>191.44</ele>
        <time>2015-09-14T14:55:37Z</time>
      </trkpt>
      <trkpt lat="48.19765" lon="-4.12035">
        <ele>190.96</ele>
        <time>2015-09-14T14:55:53Z</time>
      </trkpt>
      <trkpt lat="48.19757" lon="-4.12052">
        <ele>190</ele>
        <time>2015-09-14T14:56:10Z</time>
      </trkpt>
      <trkpt lat="48.19749" lon="-4.12071">
        <ele>190.48</ele>
        <time>2015-09-14T14:56:25Z</time>
      </trkpt>
      <trkpt lat="48.19741" lon="-4.12091">
        <ele>190</ele>
        <time>2015-09-14T14:56:39Z</time>
      </trkpt>
      <trkpt lat="48.19731" lon="-4.12115">
        <ele>190</ele>
        <time>2015-09-14T14:56:57Z</time>
      </trkpt>
      <trkpt lat="48.19721" lon="-4.12133">
        <ele>189.52</ele>
        <time>2015-09-14T14:57:12Z</time>
      </trkpt>
      <trkpt lat="48.19716" lon="-4.1214">
        <ele>189.52</ele>
        <time>2015-09-14T14:57:19Z</time>
      </trkpt>
      <trkpt lat="48.19712" lon="-4.12138">
        <ele>189.04</ele>
        <time>2015-09-14T14:57:23Z</time>
      </trkpt>
      <trkpt lat="48.19703" lon="-4.12127">
        <ele>186.63</ele>
        <time>2015-09-14T14:57:33Z</time>
      </trkpt>
      <trkpt lat="48.19691" lon="-4.12115">
        <ele>183.27</ele>
        <time>2015-09-14T14:57:46Z</time>
      </trkpt>
      <trkpt lat="48.1968" lon="-4.12103">
        <ele>180.38</ele>
        <time>2015-09-14T14:58:02Z</time>
      </trkpt>
      <trkpt lat="48.19678" lon="-4.12102">
        <ele>179.9</ele>
        <time>2015-09-14T14:58:04Z</time>
      </trkpt>
      <trkpt lat="48.19667" lon="-4.12095">
        <ele>176.54</ele>
        <time>2015-09-14T14:58:17Z</time>
      </trkpt>
      <trkpt lat="48.19656" lon="-4.12085">
        <ele>173.66</ele>
        <time>2015-09-14T14:58:34Z</time>
      </trkpt>
      <trkpt lat="48.19646" lon="-4.12077">
        <ele>170.29</ele>
        <time>2015-09-14T14:58:50Z</time>
      </trkpt>
      <trkpt lat="48.19633" lon="-4.12069">
        <ele>167.41</ele>
        <time>2015-09-14T14:59:07Z</time>
      </trkpt>
      <trkpt lat="48.19622" lon="-4.12062">
        <ele>165.96</ele>
        <time>2015-09-14T14:59:22Z</time>
      </trkpt>
      <trkpt lat="48.19609" lon="-4.12054">
        <ele>163.56</ele>
        <time>2015-09-14T14:59:39Z</time>
      </trkpt>
      <trkpt lat="48.19602" lon="-4.12053">
        <ele>162.12</ele>
        <time>2015-09-14T14:59:52Z</time>
      </trkpt>
      <trkpt lat="48.19592" lon="-4.12051">
        <ele>160.2</ele>
        <time>2015-09-14T15:00:06Z</time>
      </trkpt>
      <trkpt lat="48.19576" lon="-4.12044">
        <ele>157.79</ele>
        <time>2015-09-14T15:00:23Z</time>
      </trkpt>
      <trkpt lat="48.19561" lon="-4.12034">
        <ele>154.91</ele>
        <time>2015-09-14T15:00:42Z</time>
      </trkpt>
      <trkpt lat="48.19545" lon="-4.12029">
        <ele>151.54</ele>
        <time>2015-09-14T15:01:01Z</time>
      </trkpt>
      <trkpt lat="48.19543" lon="-4.12028">
        <ele>150.58</ele>
        <time>2015-09-14T15:01:03Z</time>
      </trkpt>
      <trkpt lat="48.19526" lon="-4.12022">
        <ele>148.66</ele>
        <time>2015-09-14T15:01:20Z</time>
      </trkpt>
      <trkpt lat="48.19507" lon="-4.12012">
        <ele>145.78</ele>
        <time>2015-09-14T15:01:37Z</time>
      </trkpt>
      <trkpt lat="48.19488" lon="-4.12008">
        <ele>142.89</ele>
        <time>2015-09-14T15:01:54Z</time>
      </trkpt>
      <trkpt lat="48.19473" lon="-4.12003">
        <ele>139.05</ele>
        <time>2015-09-14T15:02:08Z</time>
      </trkpt>
      <trkpt lat="48.19453" lon="-4.11995">
        <ele>136.16</ele>
        <time>2015-09-14T15:02:27Z</time>
      </trkpt>
      <trkpt lat="48.1944" lon="-4.11984">
        <ele>133.28</ele>
        <time>2015-09-14T15:02:40Z</time>
      </trkpt>
      <trkpt lat="48.19427" lon="-4.11975">
        <ele>129.92</ele>
        <time>2015-09-14T15:02:55Z</time>
      </trkpt>
      <trkpt lat="48.19411" lon="-4.11967">
        <ele>127.03</ele>
        <time>2015-09-14T15:03:10Z</time>
      </trkpt>
      <trkpt lat="48.19395" lon="-4.11962">
        <ele>125.11</ele>
        <time>2015-09-14T15:03:24Z</time>
      </trkpt>
      <trkpt lat="48.19381" lon="-4.11956">
        <ele>121.74</ele>
        <time>2015-09-14T15:03:36Z</time>
      </trkpt>
      <trkpt lat="48.19368" lon="-4.11952">
        <ele>118.38</ele>
        <time>2015-09-14T15:03:51Z</time>
      </trkpt>
      <trkpt lat="48.19363" lon="-4.11951">
        <ele>117.42</ele>
        <time>2015-09-14T15:03:56Z</time>
      </trkpt>
      <trkpt lat="48.19355" lon="-4.11951">
        <ele>115.5</ele>
        <time>2015-09-14T15:04:05Z</time>
      </trkpt>
      <trkpt lat="48.19346" lon="-4.11953">
        <ele>114.05</ele>
        <time>2015-09-14T15:04:20Z</time>
      </trkpt>
      <trkpt lat="48.19343" lon="-4.11951">
        <ele>114.05</ele>
        <time>2015-09-14T15:04:42Z</time>
      </trkpt>
      <trkpt lat="48.1934" lon="-4.11949">
        <ele>114.05</ele>
        <time>2015-09-14T15:05:04Z</time>
      </trkpt>
      <trkpt lat="48.1934" lon="-4.11938">
        <ele>113.09</ele>
        <time>2015-09-14T15:05:18Z</time>
      </trkpt>
      <trkpt lat="48.19338" lon="-4.11923">
        <ele>111.65</ele>
        <time>2015-09-14T15:05:28Z</time>
      </trkpt>
      <trkpt lat="48.19335" lon="-4.11892">
        <ele>110.21</ele>
        <time>2015-09-14T15:05:49Z</time>
      </trkpt>
      <trkpt lat="48.19333" lon="-4.11862">
        <ele>108.29</ele>
        <time>2015-09-14T15:06:06Z</time>
      </trkpt>
      <trkpt lat="48.19329" lon="-4.11826">
        <ele>105.4</ele>
        <time>2015-09-14T15:06:26Z</time>
      </trkpt>
      <trkpt lat="48.19325" lon="-4.11792">
        <ele>101.56</ele>
        <time>2015-09-14T15:06:46Z</time>
      </trkpt>
      <trkpt lat="48.19321" lon="-4.11766">
        <ele>100.11</ele>
        <time>2015-09-14T15:07:05Z</time>
      </trkpt>
      <trkpt lat="48.19322" lon="-4.11755">
        <ele>99.63</ele>
        <time>2015-09-14T15:07:21Z</time>
      </trkpt>
      <trkpt lat="48.19323" lon="-4.11742">
        <ele>99.63</ele>
        <time>2015-09-14T15:07:37Z</time>
      </trkpt>
      <trkpt lat="48.19324" lon="-4.11736">
        <ele>99.63</ele>
        <time>2015-09-14T15:07:56Z</time>
      </trkpt>
      <trkpt lat="48.19325" lon="-4.11746">
        <ele>99.63</ele>
        <time>2015-09-14T15:08:15Z</time>
      </trkpt>
      <trkpt lat="48.19323" lon="-4.11748">
        <ele>99.63</ele>
        <time>2015-09-14T15:08:38Z</time>
      </trkpt>
      <trkpt lat="48.19322" lon="-4.11738">
        <ele>99.63</ele>
        <time>2015-09-14T15:08:56Z</time>
      </trkpt>
      <trkpt lat="48.19325" lon="-4.11739">
        <ele>99.63</ele>
        <time>2015-09-14T15:09:09Z</time>
      </trkpt>
      <trkpt lat="48.19324" lon="-4.11733">
        <ele>99.63</ele>
        <time>2015-09-14T15:09:27Z</time>
      </trkpt>
      <trkpt lat="48.19321" lon="-4.11721">
        <ele>99.15</ele>
        <time>2015-09-14T15:09:44Z</time>
      </trkpt>
      <trkpt lat="48.19321" lon="-4.11718">
        <ele>98.67</ele>
        <time>2015-09-14T15:10:07Z</time>
      </trkpt>
      <trkpt lat="48.19324" lon="-4.11716">
        <ele>98.67</ele>
        <time>2015-09-14T15:10:20Z</time>
      </trkpt>
      <trkpt lat="48.19325" lon="-4.11714">
        <ele>98.67</ele>
        <time>2015-09-14T15:10:39Z</time>
      </trkpt>
      <trkpt lat="48.19322" lon="-4.11709">
        <ele>98.67</ele>
        <time>2015-09-14T15:10:44Z</time>
      </trkpt>
      <trkpt lat="48.19312" lon="-4.1168">
        <ele>95.31</ele>
        <time>2015-09-14T15:11:03Z</time>
      </trkpt>
      <trkpt lat="48.19309" lon="-4.11654">
        <ele>94.35</ele>
        <time>2015-09-14T15:11:18Z</time>
      </trkpt>
      <trkpt lat="48.19307" lon="-4.11644">
        <ele>94.35</ele>
        <time>2015-09-14T15:11:25Z</time>
      </trkpt>
      <trkpt lat="48.19301" lon="-4.1161">
        <ele>92.42</ele>
        <time>2015-09-14T15:11:44Z</time>
      </trkpt>
      <trkpt lat="48.19298" lon="-4.11602">
        <ele>91.46</ele>
        <time>2015-09-14T15:11:49Z</time>
      </trkpt>
      <trkpt lat="48.19295" lon="-4.11567">
        <ele>89.54</ele>
        <time>2015-09-14T15:12:06Z</time>
      </trkpt>
      <trkpt lat="48.1929" lon="-4.11536">
        <ele>86.66</ele>
        <time>2015-09-14T15:12:23Z</time>
      </trkpt>
      <trkpt lat="48.19283" lon="-4.11502">
        <ele>84.73</ele>
        <time>2015-09-14T15:12:42Z</time>
      </trkpt>
      <trkpt lat="48.19276" lon="-4.11482">
        <ele>81.85</ele>
        <time>2015-09-14T15:12:54Z</time>
      </trkpt>
      <trkpt lat="48.19274" lon="-4.11475">
        <ele>81.85</ele>
        <time>2015-09-14T15:12:58Z</time>
      </trkpt>
      <trkpt lat="48.19271" lon="-4.11465">
        <ele>79.93</ele>
        <time>2015-09-14T15:13:05Z</time>
      </trkpt>
      <trkpt lat="48.19263" lon="-4.11435">
        <ele>77.52</ele>
        <time>2015-09-14T15:13:24Z</time>
      </trkpt>
      <trkpt lat="48.19258" lon="-4.11415">
        <ele>77.52</ele>
        <time>2015-09-14T15:13:36Z</time>
      </trkpt>
      <trkpt lat="48.19256" lon="-4.11398">
        <ele>75.6</ele>
        <time>2015-09-14T15:13:50Z</time>
      </trkpt>
      <trkpt lat="48.19248" lon="-4.11364">
        <ele>75.12</ele>
        <time>2015-09-14T15:14:07Z</time>
      </trkpt>
      <trkpt lat="48.19247" lon="-4.11361">
        <ele>74.64</ele>
        <time>2015-09-14T15:14:09Z</time>
      </trkpt>
      <trkpt lat="48.19237" lon="-4.11327">
        <ele>71.76</ele>
        <time>2015-09-14T15:14:28Z</time>
      </trkpt>
      <trkpt lat="48.19238" lon="-4.11317">
        <ele>69.83</ele>
        <time>2015-09-14T15:14:41Z</time>
      </trkpt>
      <trkpt lat="48.19236" lon="-4.1131">
        <ele>69.83</ele>
        <time>2015-09-14T15:14:55Z</time>
      </trkpt>
      <trkpt lat="48.19238" lon="-4.11302">
        <ele>68.87</ele>
        <time>2015-09-14T15:15:10Z</time>
      </trkpt>
      <trkpt lat="48.19238" lon="-4.11295">
        <ele>68.87</ele>
        <time>2015-09-14T15:15:23Z</time>
      </trkpt>
      <trkpt lat="48.19236" lon="-4.11291">
        <ele>68.87</ele>
        <time>2015-09-14T15:15:36Z</time>
      </trkpt>
      <trkpt lat="48.19233" lon="-4.11265">
        <ele>67.91</ele>
        <time>2015-09-14T15:15:54Z</time>
      </trkpt>
      <trkpt lat="48.19236" lon="-4.1124">
        <ele>66.95</ele>
        <time>2015-09-14T15:16:10Z</time>
      </trkpt>
      <trkpt lat="48.19237" lon="-4.11212">
        <ele>65.51</ele>
        <time>2015-09-14T15:16:28Z</time>
      </trkpt>
      <trkpt lat="48.19239" lon="-4.11187">
        <ele>64.55</ele>
        <time>2015-09-14T15:16:43Z</time>
      </trkpt>
      <trkpt lat="48.19241" lon="-4.11181">
        <ele>64.07</ele>
        <time>2015-09-14T15:16:47Z</time>
      </trkpt>
      <trkpt lat="48.19241" lon="-4.11171">
        <ele>63.1</ele>
        <time>2015-09-14T15:16:53Z</time>
      </trkpt>
      <trkpt lat="48.19245" lon="-4.11162">
        <ele>63.1</ele>
        <time>2015-09-14T15:17:01Z</time>
      </trkpt>
      <trkpt lat="48.19244" lon="-4.11155">
        <ele>63.1</ele>
        <time>2015-09-14T15:17:06Z</time>
      </trkpt>
      <trkpt lat="48.19249" lon="-4.11134">
        <ele>62.14</ele>
        <time>2015-09-14T15:17:22Z</time>
      </trkpt>
      <trkpt lat="48.19258" lon="-4.11124">
        <ele>63.58</ele>
        <time>2015-09-14T15:17:36Z</time>
      </trkpt>
      <trkpt lat="48.19265" lon="-4.11115">
        <ele>66.95</ele>
        <time>2015-09-14T15:17:51Z</time>
      </trkpt>
      <trkpt lat="48.19268" lon="-4.11099">
        <ele>69.83</ele>
        <time>2015-09-14T15:18:08Z</time>
      </trkpt>
      <trkpt lat="48.19274" lon="-4.11084">
        <ele>69.83</ele>
        <time>2015-09-14T15:18:22Z</time>
      </trkpt>
      <trkpt lat="48.19277" lon="-4.11078">
        <ele>68.39</ele>
        <time>2015-09-14T15:18:43Z</time>
      </trkpt>
      <trkpt lat="48.19287" lon="-4.11065">
        <ele>68.39</ele>
        <time>2015-09-14T15:18:57Z</time>
      </trkpt>
      <trkpt lat="48.19298" lon="-4.11047">
        <ele>68.39</ele>
        <time>2015-09-14T15:19:11Z</time>
      </trkpt>
      <trkpt lat="48.19305" lon="-4.11029">
        <ele>68.39</ele>
        <time>2015-09-14T15:19:25Z</time>
      </trkpt>
      <trkpt lat="48.19314" lon="-4.11007">
        <ele>68.39</ele>
        <time>2015-09-14T15:19:40Z</time>
      </trkpt>
      <trkpt lat="48.19322" lon="-4.10986">
        <ele>67.91</ele>
        <time>2015-09-14T15:19:55Z</time>
      </trkpt>
      <trkpt lat="48.1933" lon="-4.10965">
        <ele>67.91</ele>
        <time>2015-09-14T15:20:11Z</time>
      </trkpt>
      <trkpt lat="48.19335" lon="-4.10948">
        <ele>67.43</ele>
        <time>2015-09-14T15:20:25Z</time>
      </trkpt>
      <trkpt lat="48.19341" lon="-4.10926">
        <ele>67.43</ele>
        <time>2015-09-14T15:20:40Z</time>
      </trkpt>
      <trkpt lat="48.19349" lon="-4.10897">
        <ele>66.95</ele>
        <time>2015-09-14T15:20:59Z</time>
      </trkpt>
      <trkpt lat="48.1936" lon="-4.10863">
        <ele>65.99</ele>
        <time>2015-09-14T15:21:19Z</time>
      </trkpt>
      <trkpt lat="48.19372" lon="-4.10827">
        <ele>65.51</ele>
        <time>2015-09-14T15:21:40Z</time>
      </trkpt>
      <trkpt lat="48.19376" lon="-4.10812">
        <ele>65.03</ele>
        <time>2015-09-14T15:21:50Z</time>
      </trkpt>
      <trkpt lat="48.19388" lon="-4.10781">
        <ele>64.55</ele>
        <time>2015-09-14T15:22:09Z</time>
      </trkpt>
      <trkpt lat="48.19402" lon="-4.10757">
        <ele>64.55</ele>
        <time>2015-09-14T15:22:27Z</time>
      </trkpt>
      <trkpt lat="48.19415" lon="-4.10738">
        <ele>64.07</ele>
        <time>2015-09-14T15:22:42Z</time>
      </trkpt>
      <trkpt lat="48.19433" lon="-4.10713">
        <ele>63.58</ele>
        <time>2015-09-14T15:23:03Z</time>
      </trkpt>
      <trkpt lat="48.19447" lon="-4.10688">
        <ele>62.62</ele>
        <time>2015-09-14T15:23:21Z</time>
      </trkpt>
      <trkpt lat="48.19449" lon="-4.10684">
        <ele>62.14</ele>
        <time>2015-09-14T15:23:24Z</time>
      </trkpt>
      <trkpt lat="48.19452" lon="-4.10679">
        <ele>61.66</ele>
        <time>2015-09-14T15:23:28Z</time>
      </trkpt>
      <trkpt lat="48.19465" lon="-4.10657">
        <ele>61.18</ele>
        <time>2015-09-14T15:23:45Z</time>
      </trkpt>
      <trkpt lat="48.19481" lon="-4.10632">
        <ele>61.18</ele>
        <time>2015-09-14T15:24:03Z</time>
      </trkpt>
      <trkpt lat="48.19493" lon="-4.10598">
        <ele>60.22</ele>
        <time>2015-09-14T15:24:25Z</time>
      </trkpt>
      <trkpt lat="48.19504" lon="-4.10568">
        <ele>59.74</ele>
        <time>2015-09-14T15:24:43Z</time>
      </trkpt>
      <trkpt lat="48.19512" lon="-4.10539">
        <ele>59.26</ele>
        <time>2015-09-14T15:25:01Z</time>
      </trkpt>
      <trkpt lat="48.19512" lon="-4.10535">
        <ele>59.26</ele>
        <time>2015-09-14T15:25:03Z</time>
      </trkpt>
      <trkpt lat="48.19521" lon="-4.10499">
        <ele>58.78</ele>
        <time>2015-09-14T15:25:22Z</time>
      </trkpt>
      <trkpt lat="48.1953" lon="-4.10473">
        <ele>57.34</ele>
        <time>2015-09-14T15:25:36Z</time>
      </trkpt>
      <trkpt lat="48.19538" lon="-4.10447">
        <ele>57.34</ele>
        <time>2015-09-14T15:25:51Z</time>
      </trkpt>
      <trkpt lat="48.1955" lon="-4.10414">
        <ele>55.41</ele>
        <time>2015-09-14T15:26:10Z</time>
      </trkpt>
      <trkpt lat="48.19554" lon="-4.10402">
        <ele>58.3</ele>
        <time>2015-09-14T15:26:17Z</time>
      </trkpt>
      <trkpt lat="48.19566" lon="-4.10376">
        <ele>55.89</ele>
        <time>2015-09-14T15:26:35Z</time>
      </trkpt>
      <trkpt lat="48.19571" lon="-4.10365">
        <ele>56.86</ele>
        <time>2015-09-14T15:26:42Z</time>
      </trkpt>
      <trkpt lat="48.19576" lon="-4.10357">
        <ele>55.89</ele>
        <time>2015-09-14T15:26:48Z</time>
      </trkpt>
      <trkpt lat="48.19582" lon="-4.10348">
        <ele>54.93</ele>
        <time>2015-09-14T15:26:55Z</time>
      </trkpt>
      <trkpt lat="48.19594" lon="-4.10346">
        <ele>53.97</ele>
        <time>2015-09-14T15:27:12Z</time>
      </trkpt>
      <trkpt lat="48.19598" lon="-4.10344">
        <ele>52.53</ele>
        <time>2015-09-14T15:27:24Z</time>
      </trkpt>
      <trkpt lat="48.196" lon="-4.10321">
        <ele>50.61</ele>
        <time>2015-09-14T15:27:41Z</time>
      </trkpt>
      <trkpt lat="48.19603" lon="-4.10314">
        <ele>54.45</ele>
        <time>2015-09-14T15:27:51Z</time>
      </trkpt>
      <trkpt lat="48.19608" lon="-4.10309">
        <ele>55.41</ele>
        <time>2015-09-14T15:27:59Z</time>
      </trkpt>
      <trkpt lat="48.19619" lon="-4.10296">
        <ele>55.41</ele>
        <time>2015-09-14T15:28:11Z</time>
      </trkpt>
      <trkpt lat="48.19628" lon="-4.10284">
        <ele>55.41</ele>
        <time>2015-09-14T15:28:21Z</time>
      </trkpt>
      <trkpt lat="48.19637" lon="-4.10272">
        <ele>53.97</ele>
        <time>2015-09-14T15:28:33Z</time>
      </trkpt>
      <trkpt lat="48.19655" lon="-4.10256">
        <ele>53.01</ele>
        <time>2015-09-14T15:28:49Z</time>
      </trkpt>
      <trkpt lat="48.19673" lon="-4.1024">
        <ele>53.01</ele>
        <time>2015-09-14T15:29:04Z</time>
      </trkpt>
      <trkpt lat="48.19691" lon="-4.10224">
        <ele>54.45</ele>
        <time>2015-09-14T15:29:21Z</time>
      </trkpt>
      <trkpt lat="48.19696" lon="-4.10219">
        <ele>54.45</ele>
        <time>2015-09-14T15:29:27Z</time>
      </trkpt>
      <trkpt lat="48.19714" lon="-4.10197">
        <ele>54.45</ele>
        <time>2015-09-14T15:29:44Z</time>
      </trkpt>
      <trkpt lat="48.19728" lon="-4.10176">
        <ele>54.45</ele>
        <time>2015-09-14T15:29:59Z</time>
      </trkpt>
      <trkpt lat="48.19734" lon="-4.10166">
        <ele>54.45</ele>
        <time>2015-09-14T15:30:12Z</time>
      </trkpt>
      <trkpt lat="48.19735" lon="-4.10164">
        <ele>54.45</ele>
        <time>2015-09-14T15:30:19Z</time>
      </trkpt>
      <trkpt lat="48.19738" lon="-4.10159">
        <ele>53.49</ele>
        <time>2015-09-14T15:30:23Z</time>
      </trkpt>
      <trkpt lat="48.19752" lon="-4.10133">
        <ele>52.53</ele>
        <time>2015-09-14T15:30:41Z</time>
      </trkpt>
      <trkpt lat="48.19753" lon="-4.10128">
        <ele>52.53</ele>
        <time>2015-09-14T15:30:45Z</time>
      </trkpt>
      <trkpt lat="48.19757" lon="-4.10116">
        <ele>53.49</ele>
        <time>2015-09-14T15:30:54Z</time>
      </trkpt>
      <trkpt lat="48.19761" lon="-4.10107">
        <ele>53.49</ele>
        <time>2015-09-14T15:31:00Z</time>
      </trkpt>
      <trkpt lat="48.19769" lon="-4.10095">
        <ele>54.45</ele>
        <time>2015-09-14T15:31:08Z</time>
      </trkpt>
      <trkpt lat="48.19771" lon="-4.10091">
        <ele>53.49</ele>
        <time>2015-09-14T15:31:10Z</time>
      </trkpt>
      <trkpt lat="48.19782" lon="-4.10067">
        <ele>53.01</ele>
        <time>2015-09-14T15:31:25Z</time>
      </trkpt>
      <trkpt lat="48.19793" lon="-4.10046">
        <ele>52.53</ele>
        <time>2015-09-14T15:31:39Z</time>
      </trkpt>
      <trkpt lat="48.1981" lon="-4.10025">
        <ele>51.57</ele>
        <time>2015-09-14T15:31:56Z</time>
      </trkpt>
      <trkpt lat="48.1981" lon="-4.10024">
        <ele>51.57</ele>
        <time>2015-09-14T15:32:04Z</time>
      </trkpt>
      <trkpt lat="48.1981" lon="-4.10015">
        <ele>51.57</ele>
        <time>2015-09-14T15:32:09Z</time>
      </trkpt>
      <trkpt lat="48.19813" lon="-4.10006">
        <ele>51.57</ele>
        <time>2015-09-14T15:32:27Z</time>
      </trkpt>
      <trkpt lat="48.19815" lon="-4.10015">
        <ele>51.57</ele>
        <time>2015-09-14T15:32:34Z</time>
      </trkpt>
      <trkpt lat="48.19814" lon="-4.10018">
        <ele>51.57</ele>
        <time>2015-09-14T15:32:36Z</time>
      </trkpt>
      <trkpt lat="48.19815" lon="-4.10022">
        <ele>51.57</ele>
        <time>2015-09-14T15:32:38Z</time>
      </trkpt>
      <trkpt lat="48.19818" lon="-4.10027">
        <ele>51.57</ele>
        <time>2015-09-14T15:32:42Z</time>
      </trkpt>
      <trkpt lat="48.19827" lon="-4.10018">
        <ele>51.09</ele>
        <time>2015-09-14T15:32:50Z</time>
      </trkpt>
      <trkpt lat="48.19841" lon="-4.10003">
        <ele>47.72</ele>
        <time>2015-09-14T15:33:03Z</time>
      </trkpt>
      <trkpt lat="48.19852" lon="-4.0999">
        <ele>44.84</ele>
        <time>2015-09-14T15:33:14Z</time>
      </trkpt>
      <trkpt lat="48.19864" lon="-4.09975">
        <ele>40.99</ele>
        <time>2015-09-14T15:33:26Z</time>
      </trkpt>
      <trkpt lat="48.19872" lon="-4.09967">
        <ele>40.03</ele>
        <time>2015-09-14T15:33:33Z</time>
      </trkpt>
      <trkpt lat="48.19866" lon="-4.09945">
        <ele>37.15</ele>
        <time>2015-09-14T15:33:48Z</time>
      </trkpt>
      <trkpt lat="48.19852" lon="-4.09927">
        <ele>34.26</ele>
        <time>2015-09-14T15:34:10Z</time>
      </trkpt>
      <trkpt lat="48.19824" lon="-4.0989">
        <ele>32.82</ele>
        <time>2015-09-14T15:34:28Z</time>
      </trkpt>
      <trkpt lat="48.19812" lon="-4.09886">
        <ele>29.46</ele>
        <time>2015-09-14T15:34:37Z</time>
      </trkpt>
      <trkpt lat="48.1981" lon="-4.09886">
        <ele>29.46</ele>
        <time>2015-09-14T15:34:38Z</time>
      </trkpt>
      <trkpt lat="48.19789" lon="-4.09881">
        <ele>26.09</ele>
        <time>2015-09-14T15:34:55Z</time>
      </trkpt>
      <trkpt lat="48.19764" lon="-4.09871">
        <ele>23.21</ele>
        <time>2015-09-14T15:35:17Z</time>
      </trkpt>
      <trkpt lat="48.19746" lon="-4.09852">
        <ele>19.84</ele>
        <time>2015-09-14T15:35:34Z</time>
      </trkpt>
      <trkpt lat="48.19742" lon="-4.09853">
        <ele>19.84</ele>
        <time>2015-09-14T15:35:50Z</time>
      </trkpt>
      <trkpt lat="48.19739" lon="-4.09855">
        <ele>19.84</ele>
        <time>2015-09-14T15:36:02Z</time>
      </trkpt>
      <trkpt lat="48.19727" lon="-4.09838">
        <ele>19.84</ele>
        <time>2015-09-14T15:36:16Z</time>
      </trkpt>
      <trkpt lat="48.19709" lon="-4.09835">
        <ele>19.36</ele>
        <time>2015-09-14T15:36:31Z</time>
      </trkpt>
      <trkpt lat="48.19701" lon="-4.09833">
        <ele>19.36</ele>
        <time>2015-09-14T15:36:39Z</time>
      </trkpt>
      <trkpt lat="48.19684" lon="-4.09832">
        <ele>18.88</ele>
        <time>2015-09-14T15:36:55Z</time>
      </trkpt>
      <trkpt lat="48.19681" lon="-4.0983">
        <ele>18.88</ele>
        <time>2015-09-14T15:36:58Z</time>
      </trkpt>
      <trkpt lat="48.1968" lon="-4.09823">
        <ele>20.32</ele>
        <time>2015-09-14T15:37:03Z</time>
      </trkpt>
      <trkpt lat="48.19684" lon="-4.09808">
        <ele>22.25</ele>
        <time>2015-09-14T15:37:17Z</time>
      </trkpt>
      <trkpt lat="48.19689" lon="-4.09798">
        <ele>25.13</ele>
        <time>2015-09-14T15:37:31Z</time>
      </trkpt>
      <trkpt lat="48.19695" lon="-4.09779">
        <ele>26.57</ele>
        <time>2015-09-14T15:37:49Z</time>
      </trkpt>
      <trkpt lat="48.19701" lon="-4.09756">
        <ele>28.02</ele>
        <time>2015-09-14T15:38:05Z</time>
      </trkpt>
      <trkpt lat="48.19703" lon="-4.09742">
        <ele>30.9</ele>
        <time>2015-09-14T15:38:19Z</time>
      </trkpt>
      <trkpt lat="48.19697" lon="-4.09732">
        <ele>33.3</ele>
        <time>2015-09-14T15:38:35Z</time>
      </trkpt>
      <trkpt lat="48.19691" lon="-4.0973">
        <ele>34.74</ele>
        <time>2015-09-14T15:38:48Z</time>
      </trkpt>
      <trkpt lat="48.1969" lon="-4.09726">
        <ele>33.3</ele>
        <time>2015-09-14T15:39:11Z</time>
      </trkpt>
      <trkpt lat="48.19689" lon="-4.09716">
        <ele>36.67</ele>
        <time>2015-09-14T15:39:18Z</time>
      </trkpt>
      <trkpt lat="48.1969" lon="-4.097">
        <ele>37.15</ele>
        <time>2015-09-14T15:39:31Z</time>
      </trkpt>
      <trkpt lat="48.19699" lon="-4.09667">
        <ele>37.15</ele>
        <time>2015-09-14T15:39:49Z</time>
      </trkpt>
      <trkpt lat="48.1971" lon="-4.09636">
        <ele>37.15</ele>
        <time>2015-09-14T15:40:09Z</time>
      </trkpt>
      <trkpt lat="48.19719" lon="-4.09607">
        <ele>37.15</ele>
        <time>2015-09-14T15:40:26Z</time>
      </trkpt>
      <trkpt lat="48.19726" lon="-4.09581">
        <ele>37.15</ele>
        <time>2015-09-14T15:40:42Z</time>
      </trkpt>
      <trkpt lat="48.19735" lon="-4.09556">
        <ele>36.19</ele>
        <time>2015-09-14T15:40:58Z</time>
      </trkpt>
      <trkpt lat="48.19736" lon="-4.09551">
        <ele>35.71</ele>
        <time>2015-09-14T15:41:01Z</time>
      </trkpt>
      <trkpt lat="48.19739" lon="-4.09541">
        <ele>35.71</ele>
        <time>2015-09-14T15:41:07Z</time>
      </trkpt>
      <trkpt lat="48.19743" lon="-4.09519">
        <ele>35.71</ele>
        <time>2015-09-14T15:41:24Z</time>
      </trkpt>
      <trkpt lat="48.19743" lon="-4.0951">
        <ele>34.74</ele>
        <time>2015-09-14T15:41:35Z</time>
      </trkpt>
      <trkpt lat="48.19742" lon="-4.09507">
        <ele>34.74</ele>
        <time>2015-09-14T15:41:38Z</time>
      </trkpt>
      <trkpt lat="48.19748" lon="-4.09481">
        <ele>34.74</ele>
        <time>2015-09-14T15:41:53Z</time>
      </trkpt>
      <trkpt lat="48.19748" lon="-4.09468">
        <ele>34.74</ele>
        <time>2015-09-14T15:42:01Z</time>
      </trkpt>
      <trkpt lat="48.19748" lon="-4.09464">
        <ele>34.74</ele>
        <time>2015-09-14T15:42:03Z</time>
      </trkpt>
      <trkpt lat="48.19751" lon="-4.09448">
        <ele>34.74</ele>
        <time>2015-09-14T15:42:20Z</time>
      </trkpt>
      <trkpt lat="48.19753" lon="-4.09446">
        <ele>34.74</ele>
        <time>2015-09-14T15:42:35Z</time>
      </trkpt>
      <trkpt lat="48.19749" lon="-4.09416">
        <ele>33.78</ele>
        <time>2015-09-14T15:42:55Z</time>
      </trkpt>
      <trkpt lat="48.19748" lon="-4.09414">
        <ele>33.78</ele>
        <time>2015-09-14T15:42:57Z</time>
      </trkpt>
      <trkpt lat="48.19744" lon="-4.09404">
        <ele>33.78</ele>
        <time>2015-09-14T15:43:06Z</time>
      </trkpt>
      <trkpt lat="48.19732" lon="-4.09388">
        <ele>35.23</ele>
        <time>2015-09-14T15:43:24Z</time>
      </trkpt>
      <trkpt lat="48.19731" lon="-4.09387">
        <ele>35.71</ele>
        <time>2015-09-14T15:43:26Z</time>
      </trkpt>
      <trkpt lat="48.19723" lon="-4.09376">
        <ele>36.19</ele>
        <time>2015-09-14T15:43:42Z</time>
      </trkpt>
      <trkpt lat="48.19722" lon="-4.09376">
        <ele>36.19</ele>
        <time>2015-09-14T15:44:12Z</time>
      </trkpt>
      <trkpt lat="48.19725" lon="-4.09365">
        <ele>37.15</ele>
        <time>2015-09-14T15:44:37Z</time>
      </trkpt>
      <trkpt lat="48.19725" lon="-4.09366">
        <ele>35.71</ele>
        <time>2015-09-14T15:44:53Z</time>
      </trkpt>
      <trkpt lat="48.19725" lon="-4.09366">
        <ele>36.67</ele>
        <time>2015-09-14T15:44:58Z</time>
      </trkpt>
      <trkpt lat="48.19724" lon="-4.09368">
        <ele>35.23</ele>
        <time>2015-09-14T15:45:26Z</time>
      </trkpt>
      <trkpt lat="48.19726" lon="-4.09364">
        <ele>36.19</ele>
        <time>2015-09-14T15:46:04Z</time>
      </trkpt>
      <trkpt lat="48.19727" lon="-4.09364">
        <ele>36.19</ele>
        <time>2015-09-14T15:46:18Z</time>
      </trkpt>
      <trkpt lat="48.19726" lon="-4.09365">
        <ele>34.74</ele>
        <time>2015-09-14T15:46:44Z</time>
      </trkpt>
      <trkpt lat="48.19729" lon="-4.09373">
        <ele>34.74</ele>
        <time>2015-09-14T15:47:02Z</time>
      </trkpt>
      <trkpt lat="48.1973" lon="-4.09375">
        <ele>34.74</ele>
        <time>2015-09-14T15:47:06Z</time>
      </trkpt>
      <trkpt lat="48.19741" lon="-4.09388">
        <ele>34.74</ele>
        <time>2015-09-14T15:47:22Z</time>
      </trkpt>
      <trkpt lat="48.1975" lon="-4.09416">
        <ele>33.3</ele>
        <time>2015-09-14T15:47:40Z</time>
      </trkpt>
      <trkpt lat="48.19751" lon="-4.09418">
        <ele>33.3</ele>
        <time>2015-09-14T15:47:41Z</time>
      </trkpt>
      <trkpt lat="48.19752" lon="-4.09424">
        <ele>33.3</ele>
        <time>2015-09-14T15:47:45Z</time>
      </trkpt>
      <trkpt lat="48.19751" lon="-4.09447">
        <ele>34.26</ele>
        <time>2015-09-14T15:48:00Z</time>
      </trkpt>
      <trkpt lat="48.1975" lon="-4.09473">
        <ele>34.74</ele>
        <time>2015-09-14T15:48:16Z</time>
      </trkpt>
      <trkpt lat="48.19747" lon="-4.09497">
        <ele>35.23</ele>
        <time>2015-09-14T15:48:33Z</time>
      </trkpt>
      <trkpt lat="48.19748" lon="-4.09513">
        <ele>35.71</ele>
        <time>2015-09-14T15:48:51Z</time>
      </trkpt>
      <trkpt lat="48.19743" lon="-4.09545">
        <ele>35.71</ele>
        <time>2015-09-14T15:49:10Z</time>
      </trkpt>
      <trkpt lat="48.19739" lon="-4.0956">
        <ele>36.19</ele>
        <time>2015-09-14T15:49:21Z</time>
      </trkpt>
      <trkpt lat="48.19731" lon="-4.09585">
        <ele>36.19</ele>
        <time>2015-09-14T15:49:36Z</time>
      </trkpt>
      <trkpt lat="48.19725" lon="-4.09609">
        <ele>36.67</ele>
        <time>2015-09-14T15:49:52Z</time>
      </trkpt>
      <trkpt lat="48.19712" lon="-4.09639">
        <ele>37.15</ele>
        <time>2015-09-14T15:50:11Z</time>
      </trkpt>
      <trkpt lat="48.19702" lon="-4.09666">
        <ele>37.15</ele>
        <time>2015-09-14T15:50:29Z</time>
      </trkpt>
      <trkpt lat="48.19696" lon="-4.09687">
        <ele>37.15</ele>
        <time>2015-09-14T15:50:42Z</time>
      </trkpt>
      <trkpt lat="48.19693" lon="-4.09713">
        <ele>37.15</ele>
        <time>2015-09-14T15:50:59Z</time>
      </trkpt>
      <trkpt lat="48.19693" lon="-4.09716">
        <ele>35.71</ele>
        <time>2015-09-14T15:51:02Z</time>
      </trkpt>
      <trkpt lat="48.19696" lon="-4.09716">
        <ele>34.74</ele>
        <time>2015-09-14T15:51:16Z</time>
      </trkpt>
      <trkpt lat="48.19697" lon="-4.0971">
        <ele>34.26</ele>
        <time>2015-09-14T15:51:30Z</time>
      </trkpt>
      <trkpt lat="48.19704" lon="-4.09694">
        <ele>32.34</ele>
        <time>2015-09-14T15:51:46Z</time>
      </trkpt>
      <trkpt lat="48.19709" lon="-4.09671">
        <ele>29.94</ele>
        <time>2015-09-14T15:52:04Z</time>
      </trkpt>
      <trkpt lat="48.19716" lon="-4.09647">
        <ele>28.5</ele>
        <time>2015-09-14T15:52:23Z</time>
      </trkpt>
      <trkpt lat="48.1973" lon="-4.09613">
        <ele>27.53</ele>
        <time>2015-09-14T15:52:44Z</time>
      </trkpt>
      <trkpt lat="48.19741" lon="-4.09584">
        <ele>26.57</ele>
        <time>2015-09-14T15:53:06Z</time>
      </trkpt>
      <trkpt lat="48.19754" lon="-4.09544">
        <ele>24.65</ele>
        <time>2015-09-14T15:53:27Z</time>
      </trkpt>
      <trkpt lat="48.19763" lon="-4.09505">
        <ele>22.73</ele>
        <time>2015-09-14T15:53:51Z</time>
      </trkpt>
      <trkpt lat="48.19769" lon="-4.0947">
        <ele>21.29</ele>
        <time>2015-09-14T15:54:12Z</time>
      </trkpt>
      <trkpt lat="48.19771" lon="-4.09452">
        <ele>20.32</ele>
        <time>2015-09-14T15:54:23Z</time>
      </trkpt>
      <trkpt lat="48.19772" lon="-4.09426">
        <ele>19.84</ele>
        <time>2015-09-14T15:54:40Z</time>
      </trkpt>
      <trkpt lat="48.19773" lon="-4.09391">
        <ele>17.92</ele>
        <time>2015-09-14T15:54:58Z</time>
      </trkpt>
      <trkpt lat="48.1977" lon="-4.09355">
        <ele>15.52</ele>
        <time>2015-09-14T15:55:20Z</time>
      </trkpt>
      <trkpt lat="48.19763" lon="-4.09326">
        <ele>14.08</ele>
        <time>2015-09-14T15:55:39Z</time>
      </trkpt>
      <trkpt lat="48.19752" lon="-4.09299">
        <ele>13.6</ele>
        <time>2015-09-14T15:55:57Z</time>
      </trkpt>
      <trkpt lat="48.19752" lon="-4.09298">
        <ele>13.6</ele>
        <time>2015-09-14T15:55:58Z</time>
      </trkpt>
      <trkpt lat="48.19744" lon="-4.09277">
        <ele>10.71</ele>
        <time>2015-09-14T15:56:12Z</time>
      </trkpt>
      <trkpt lat="48.19734" lon="-4.09271">
        <ele>9.27</ele>
        <time>2015-09-14T15:56:23Z</time>
      </trkpt>
      <trkpt lat="48.19729" lon="-4.09267">
        <ele>8.31</ele>
        <time>2015-09-14T15:56:27Z</time>
      </trkpt>
      <trkpt lat="48.19715" lon="-4.09283">
        <ele>6.39</ele>
        <time>2015-09-14T15:56:48Z</time>
      </trkpt>
      <trkpt lat="48.19715" lon="-4.09281">
        <ele>6.39</ele>
        <time>2015-09-14T15:56:50Z</time>
      </trkpt>
      <trkpt lat="48.19718" lon="-4.09277">
        <ele>7.83</ele>
        <time>2015-09-14T15:56:54Z</time>
      </trkpt>
      <trkpt lat="48.19721" lon="-4.09264">
        <ele>6.87</ele>
        <time>2015-09-14T15:57:04Z</time>
      </trkpt>
      <trkpt lat="48.19717" lon="-4.09256">
        <ele>5.91</ele>
        <time>2015-09-14T15:57:09Z</time>
      </trkpt>
      <trkpt lat="48.19723" lon="-4.09236">
        <ele>6.39</ele>
        <time>2015-09-14T15:57:22Z</time>
      </trkpt>
      <trkpt lat="48.19728" lon="-4.09212">
        <ele>6.39</ele>
        <time>2015-09-14T15:57:39Z</time>
      </trkpt>
      <trkpt lat="48.19731" lon="-4.09204">
        <ele>6.39</ele>
        <time>2015-09-14T15:57:54Z</time>
      </trkpt>
      <trkpt lat="48.19729" lon="-4.09203">
        <ele>7.35</ele>
        <time>2015-09-14T15:58:13Z</time>
      </trkpt>
      <trkpt lat="48.19728" lon="-4.09205">
        <ele>5.91</ele>
        <time>2015-09-14T15:58:43Z</time>
      </trkpt>
      <trkpt lat="48.19728" lon="-4.09204">
        <ele>6.87</ele>
        <time>2015-09-14T15:58:47Z</time>
      </trkpt>
      <trkpt lat="48.19729" lon="-4.09203">
        <ele>7.35</ele>
        <time>2015-09-14T15:59:01Z</time>
      </trkpt>
      <trkpt lat="48.1973" lon="-4.09202">
        <ele>7.35</ele>
        <time>2015-09-14T15:59:31Z</time>
      </trkpt>
      <trkpt lat="48.19729" lon="-4.09204">
        <ele>7.35</ele>
        <time>2015-09-14T15:59:53Z</time>
      </trkpt>
      <trkpt lat="48.19729" lon="-4.09202">
        <ele>7.83</ele>
        <time>2015-09-14T16:00:15Z</time>
      </trkpt>
      <trkpt lat="48.19731" lon="-4.09202">
        <ele>6.39</ele>
        <time>2015-09-14T16:00:29Z</time>
      </trkpt>
      <trkpt lat="48.19731" lon="-4.09201">
        <ele>7.83</ele>
        <time>2015-09-14T16:00:45Z</time>
      </trkpt>
    </trkseg>
  </trk>
</gpx>